KLM274 LKPR-MMGL
Flight info
| Callsign | KLM274 |
|---|---|
| Flight time | N/A |
| Altitude | 34000 |
| Route | BALTU DCT DONAD DCT RAPET T843 DEMAB L604 RELBI L602 NALAX L46 GETNO DCT NIBOG DCT PIKIL/M084F340 DCT 56N020W 55N030W 53N040W 51N050W DCT ALLRY/N0488F340 N482C MIILS DCT PQI DCT YUL DCT YCF DCT YXU DCT ROD DCT PXV J29 MEM DCT AEX DCT SBI DCT VUH DCT BRO J25 CVM DCT AGU UT44 MEZCA MEZCA1B |
| Aircraft | A359/H-SDE2E3GHIJ3J4J5LM1ORWXY/LB1D1 |
Departure
| Time | 2026-05-07 22:00 |
|---|---|
| Airport | Václav Havel Airport Prague (LKPR) |
Arrival
| Time | N/A |
|---|---|
| Airport | Guadalajara International Airport (MMGL) |
| Time | Latitude | Longitude | Altitude | Speed | Heading |
|---|---|---|---|---|---|
| 2026-05-07 21:44 | 50.10706 | 14.25917 | 1186 ft | 0 kts | 168° |
| 2026-05-07 21:52 | 50.10679 | 14.25914 | 1184 ft | 11 kts | 202° |
| 2026-05-07 21:53 | 50.10571 | 14.25750 | 1189 ft | 30 kts | 212° |
| 2026-05-07 21:53 | 50.10464 | 14.25511 | 1186 ft | 20 kts | 259° |
| 2026-05-07 21:53 | 50.10460 | 14.25478 | 1185 ft | 0 kts | 259° |
| 2026-05-07 21:53 | 50.10458 | 14.25459 | 1180 ft | 6 kts | 257° |
| 2026-05-07 21:54 | 50.10427 | 14.25246 | 1170 ft | 32 kts | 258° |
| 2026-05-07 21:54 | 50.10383 | 14.24907 | 1176 ft | 29 kts | 258° |
| 2026-05-07 21:54 | 50.10347 | 14.24633 | 1177 ft | 23 kts | 258° |
| 2026-05-07 21:54 | 50.10324 | 14.24421 | 1187 ft | 16 kts | 260° |
| 2026-05-07 21:55 | 50.10311 | 14.24289 | 1190 ft | 9 kts | 261° |
| 2026-05-07 21:55 | 50.10299 | 14.24197 | 1192 ft | 10 kts | 255° |
| 2026-05-07 21:55 | 50.10276 | 14.24066 | 1195 ft | 15 kts | 259° |
| 2026-05-07 21:55 | 50.10255 | 14.23870 | 1200 ft | 20 kts | 264° |
| 2026-05-07 21:56 | 50.10229 | 14.23694 | 1207 ft | 13 kts | 261° |
| 2026-05-07 21:56 | 50.10219 | 14.23586 | 1213 ft | 8 kts | 261° |
| 2026-05-07 21:56 | 50.10207 | 14.23484 | 1216 ft | 12 kts | 256° |
| 2026-05-07 21:56 | 50.10166 | 14.23330 | 1222 ft | 18 kts | 246° |
| 2026-05-07 21:57 | 50.10108 | 14.23128 | 1232 ft | 22 kts | 245° |
| 2026-05-07 21:57 | 50.10045 | 14.22902 | 1250 ft | 20 kts | 256° |
| 2026-05-07 21:57 | 50.10080 | 14.22751 | 1257 ft | 9 kts | 327° |
| 2026-05-07 21:57 | 50.10082 | 14.22749 | 1257 ft | 0 kts | 329° |
| 2026-05-07 21:59 | 50.10102 | 14.22732 | 1254 ft | 10 kts | 334° |
| 2026-05-07 21:59 | 50.10210 | 14.22767 | 1252 ft | 8 kts | 51° |
| 2026-05-07 21:59 | 50.10298 | 14.22991 | 1231 ft | 48 kts | 64° |
| 2026-05-07 21:59 | 50.10540 | 14.23807 | 1197 ft | 117 kts | 65° |
| 2026-05-07 22:00 | 50.10965 | 14.25256 | 1188 ft | 174 kts | 65° |
| 2026-05-07 22:00 | 50.11510 | 14.27137 | 1502 ft | 202 kts | 63° |
| 2026-05-07 22:00 | 50.12103 | 14.29091 | 2462 ft | 199 kts | 62° |
| 2026-05-07 22:00 | 50.12726 | 14.31137 | 2993 ft | 219 kts | 62° |
| 2026-05-07 22:01 | 50.13398 | 14.33360 | 3234 ft | 235 kts | 62° |
| 2026-05-07 22:01 | 50.14120 | 14.35755 | 3476 ft | 252 kts | 63° |
| 2026-05-07 22:01 | 50.14875 | 14.38280 | 3856 ft | 261 kts | 63° |
| 2026-05-07 22:01 | 50.15384 | 14.39989 | 4157 ft | 265 kts | 63° |
| 2026-05-07 22:02 | 50.16169 | 14.42627 | 4663 ft | 271 kts | 64° |
| 2026-05-07 22:02 | 50.16999 | 14.45283 | 5164 ft | 274 kts | 58° |
| 2026-05-07 22:02 | 50.18261 | 14.47477 | 5703 ft | 274 kts | 32° |
| 2026-05-07 22:02 | 50.20031 | 14.48429 | 6240 ft | 271 kts | 1° |
| 2026-05-07 22:03 | 50.21858 | 14.47896 | 6759 ft | 269 kts | 334° |
| 2026-05-07 22:03 | 50.23480 | 14.46426 | 7294 ft | 270 kts | 325° |
| 2026-05-07 22:03 | 50.25042 | 14.44792 | 7864 ft | 272 kts | 325° |
| 2026-05-07 22:03 | 50.26619 | 14.43135 | 8437 ft | 274 kts | 324° |
| 2026-05-07 22:04 | 50.28211 | 14.41479 | 9008 ft | 276 kts | 324° |
| 2026-05-07 22:04 | 50.29822 | 14.39813 | 9571 ft | 280 kts | 325° |
| 2026-05-07 22:04 | 50.31458 | 14.38131 | 10088 ft | 283 kts | 325° |
| 2026-05-07 22:04 | 50.33139 | 14.36408 | 10408 ft | 295 kts | 325° |
| 2026-05-07 22:05 | 50.34894 | 14.34608 | 10621 ft | 309 kts | 326° |
| 2026-05-07 22:05 | 50.36724 | 14.32705 | 10828 ft | 323 kts | 323° |
| 2026-05-07 22:05 | 50.38367 | 14.30229 | 11006 ft | 334 kts | 304° |
| 2026-05-07 22:05 | 50.39302 | 14.26859 | 11171 ft | 346 kts | 280° |
| 2026-05-07 22:06 | 50.39250 | 14.23067 | 11381 ft | 356 kts | 256° |
| 2026-05-07 22:06 | 50.38356 | 14.19436 | 11792 ft | 360 kts | 245° |
| 2026-05-07 22:06 | 50.37262 | 14.15886 | 12253 ft | 363 kts | 244° |
| 2026-05-07 22:06 | 50.36155 | 14.12321 | 12733 ft | 365 kts | 245° |
| 2026-05-07 22:07 | 50.35053 | 14.08730 | 13197 ft | 367 kts | 245° |
| 2026-05-07 22:07 | 50.33964 | 14.05164 | 13652 ft | 369 kts | 245° |
| 2026-05-07 22:07 | 50.32859 | 14.01528 | 14075 ft | 372 kts | 245° |
| 2026-05-07 22:07 | 50.31746 | 13.97857 | 14465 ft | 374 kts | 245° |
| 2026-05-07 22:08 | 50.30630 | 13.94172 | 14868 ft | 376 kts | 245° |
| 2026-05-07 22:08 | 50.29506 | 13.90469 | 15247 ft | 379 kts | 246° |
| 2026-05-07 22:08 | 50.28373 | 13.86733 | 15642 ft | 381 kts | 246° |
| 2026-05-07 22:08 | 50.27231 | 13.82971 | 16028 ft | 384 kts | 246° |
| 2026-05-07 22:09 | 50.26084 | 13.79196 | 16425 ft | 386 kts | 246° |
| 2026-05-07 22:09 | 50.24925 | 13.75393 | 16804 ft | 389 kts | 246° |
| 2026-05-07 22:09 | 50.23760 | 13.71570 | 17187 ft | 391 kts | 246° |
| 2026-05-07 22:09 | 50.22511 | 13.67778 | 17561 ft | 395 kts | 242° |
| 2026-05-07 22:10 | 50.21119 | 13.64073 | 17955 ft | 397 kts | 241° |
| 2026-05-07 22:10 | 50.19687 | 13.60362 | 18358 ft | 400 kts | 241° |
| 2026-05-07 22:10 | 50.18248 | 13.56644 | 18680 ft | 402 kts | 241° |
| 2026-05-07 22:10 | 50.16801 | 13.52903 | 19031 ft | 404 kts | 241° |
| 2026-05-07 22:11 | 50.15343 | 13.49136 | 19383 ft | 406 kts | 241° |
| 2026-05-07 22:11 | 50.13878 | 13.45354 | 19731 ft | 408 kts | 241° |
| 2026-05-07 22:11 | 50.12405 | 13.41557 | 20076 ft | 411 kts | 241° |
| 2026-05-07 22:11 | 50.10926 | 13.37740 | 20419 ft | 413 kts | 242° |
| 2026-05-07 22:12 | 50.09634 | 13.33758 | 20754 ft | 411 kts | 251° |
| 2026-05-07 22:12 | 50.08914 | 13.29465 | 21120 ft | 409 kts | 263° |
| 2026-05-07 22:12 | 50.08602 | 13.25064 | 21478 ft | 410 kts | 268° |
| 2026-05-07 22:12 | 50.08451 | 13.20630 | 21831 ft | 411 kts | 270° |
| 2026-05-07 22:13 | 50.08371 | 13.16179 | 22191 ft | 413 kts | 270° |
| 2026-05-07 22:13 | 50.08309 | 13.11703 | 22562 ft | 414 kts | 270° |
| 2026-05-07 22:13 | 50.08238 | 13.07205 | 22917 ft | 416 kts | 270° |
| 2026-05-07 22:13 | 50.08210 | 13.02694 | 23255 ft | 417 kts | 274° |
| 2026-05-07 22:14 | 50.08531 | 12.98204 | 23603 ft | 418 kts | 282° |
| 2026-05-07 22:14 | 50.09114 | 12.93769 | 23903 ft | 419 kts | 284° |
| 2026-05-07 22:14 | 50.09798 | 12.89354 | 24184 ft | 420 kts | 285° |
| 2026-05-07 22:14 | 50.10541 | 12.84924 | 24342 ft | 426 kts | 286° |
| 2026-05-07 22:15 | 50.11315 | 12.80443 | 24603 ft | 428 kts | 286° |
| 2026-05-07 22:15 | 50.12090 | 12.75962 | 24934 ft | 429 kts | 286° |
| 2026-05-07 22:15 | 50.12860 | 12.71460 | 25236 ft | 431 kts | 285° |
| 2026-05-07 22:15 | 50.13624 | 12.66933 | 25533 ft | 433 kts | 285° |
| 2026-05-07 22:16 | 50.14382 | 12.62388 | 25835 ft | 435 kts | 285° |
| 2026-05-07 22:16 | 50.15140 | 12.57811 | 26149 ft | 437 kts | 285° |
| 2026-05-07 22:16 | 50.15898 | 12.53213 | 26449 ft | 438 kts | 285° |
| 2026-05-07 22:16 | 50.16655 | 12.48595 | 26750 ft | 440 kts | 285° |
| 2026-05-07 22:17 | 50.17413 | 12.43962 | 27005 ft | 443 kts | 285° |
| 2026-05-07 22:17 | 50.18178 | 12.39279 | 27190 ft | 447 kts | 285° |
| 2026-05-07 22:17 | 50.18946 | 12.34567 | 27500 ft | 449 kts | 285° |
| 2026-05-07 22:17 | 50.19715 | 12.29832 | 27815 ft | 451 kts | 285° |
| 2026-05-07 22:18 | 50.20470 | 12.25086 | 28094 ft | 453 kts | 284° |
| 2026-05-07 22:18 | 50.21972 | 12.15496 | 28660 ft | 456 kts | 284° |
| 2026-05-07 22:18 | 50.22722 | 12.10675 | 28933 ft | 458 kts | 284° |
| 2026-05-07 22:19 | 50.23477 | 12.05826 | 29193 ft | 460 kts | 284° |
| 2026-05-07 22:19 | 50.24235 | 12.00954 | 29451 ft | 462 kts | 284° |
| 2026-05-07 22:19 | 50.24996 | 11.96054 | 29580 ft | 466 kts | 284° |
| 2026-05-07 22:19 | 50.25767 | 11.91114 | 29830 ft | 468 kts | 284° |
| 2026-05-07 22:20 | 50.26536 | 11.86166 | 30093 ft | 469 kts | 284° |
| 2026-05-07 22:20 | 50.27305 | 11.81203 | 30306 ft | 471 kts | 284° |
| 2026-05-07 22:20 | 50.28073 | 11.76222 | 30530 ft | 472 kts | 284° |
| 2026-05-07 22:20 | 50.28841 | 11.71226 | 30766 ft | 472 kts | 284° |
| 2026-05-07 22:21 | 50.29606 | 11.66236 | 30976 ft | 474 kts | 284° |
| 2026-05-07 22:21 | 50.30374 | 11.61216 | 31177 ft | 474 kts | 284° |
| 2026-05-07 22:21 | 50.31139 | 11.56209 | 31447 ft | 473 kts | 283° |
| 2026-05-07 22:21 | 50.31888 | 11.51212 | 31743 ft | 472 kts | 283° |
| 2026-05-07 22:22 | 50.32619 | 11.46268 | 32014 ft | 471 kts | 283° |
| 2026-05-07 22:22 | 50.33361 | 11.41219 | 32269 ft | 470 kts | 283° |
| 2026-05-07 22:22 | 50.34085 | 11.36294 | 32512 ft | 470 kts | 283° |
| 2026-05-07 22:22 | 50.34816 | 11.31327 | 32758 ft | 469 kts | 283° |
| 2026-05-07 22:23 | 50.35548 | 11.26346 | 32988 ft | 469 kts | 283° |
| 2026-05-07 22:23 | 50.36279 | 11.21368 | 33212 ft | 468 kts | 283° |
| 2026-05-07 22:23 | 50.37011 | 11.16404 | 33438 ft | 468 kts | 283° |
| 2026-05-07 22:23 | 50.37735 | 11.11440 | 33658 ft | 467 kts | 283° |
| 2026-05-07 22:24 | 50.38463 | 11.06417 | 33875 ft | 467 kts | 283° |
| 2026-05-07 22:24 | 50.39180 | 11.01454 | 34068 ft | 467 kts | 283° |
| 2026-05-07 22:24 | 50.39896 | 10.96482 | 34107 ft | 470 kts | 282° |
| 2026-05-07 22:25 | 50.41338 | 10.86432 | 34109 ft | 473 kts | 282° |
| 2026-05-07 22:25 | 50.42765 | 10.76435 | 34108 ft | 473 kts | 282° |
| 2026-05-07 22:26 | 50.44195 | 10.66385 | 34106 ft | 472 kts | 283° |
| 2026-05-07 22:26 | 50.45645 | 10.56337 | 34108 ft | 472 kts | 283° |
| 2026-05-07 22:27 | 50.47090 | 10.46307 | 34107 ft | 471 kts | 282° |
| 2026-05-07 22:27 | 50.48509 | 10.36251 | 34107 ft | 471 kts | 282° |
| 2026-05-07 22:28 | 50.49909 | 10.26199 | 34112 ft | 471 kts | 282° |
| 2026-05-07 22:28 | 50.51302 | 10.16133 | 34112 ft | 471 kts | 282° |
| 2026-05-07 22:29 | 50.52687 | 10.06070 | 34112 ft | 471 kts | 282° |
| 2026-05-07 22:29 | 50.54681 | 9.96292 | 34115 ft | 471 kts | 295° |
| 2026-05-07 22:30 | 50.58263 | 9.87683 | 34119 ft | 472 kts | 307° |
| 2026-05-07 22:30 | 50.62416 | 9.79668 | 34116 ft | 472 kts | 309° |
| 2026-05-07 22:31 | 50.66644 | 9.71755 | 34117 ft | 472 kts | 309° |
| 2026-05-07 22:31 | 50.70849 | 9.63814 | 34116 ft | 472 kts | 309° |
| 2026-05-07 22:32 | 50.75032 | 9.55818 | 34113 ft | 472 kts | 308° |
| 2026-05-07 22:32 | 50.79208 | 9.47810 | 34113 ft | 472 kts | 308° |
| 2026-05-07 22:33 | 50.83381 | 9.39793 | 34110 ft | 472 kts | 308° |
| 2026-05-07 22:33 | 50.87556 | 9.31745 | 34123 ft | 474 kts | 308° |
| 2026-05-07 22:34 | 50.91707 | 9.23715 | 34123 ft | 474 kts | 308° |
| 2026-05-07 22:34 | 50.95879 | 9.15620 | 34124 ft | 474 kts | 308° |
| 2026-05-07 22:35 | 51.00043 | 9.07513 | 34128 ft | 474 kts | 307° |
| 2026-05-07 22:35 | 51.04209 | 8.99380 | 34126 ft | 475 kts | 307° |
| 2026-05-07 22:36 | 51.08370 | 8.91229 | 34127 ft | 475 kts | 307° |
| 2026-05-07 22:36 | 51.12522 | 8.83070 | 34125 ft | 475 kts | 307° |
| 2026-05-07 22:37 | 51.16677 | 8.74891 | 34125 ft | 475 kts | 307° |
| 2026-05-07 22:37 | 51.20814 | 8.66699 | 34127 ft | 475 kts | 307° |
| 2026-05-07 22:38 | 51.24945 | 8.58490 | 34132 ft | 475 kts | 307° |
| 2026-05-07 22:38 | 51.29081 | 8.50252 | 34129 ft | 476 kts | 307° |
| 2026-05-07 22:39 | 51.33227 | 8.41970 | 34128 ft | 477 kts | 307° |
| 2026-05-07 22:39 | 51.37385 | 8.33712 | 34127 ft | 477 kts | 307° |
| 2026-05-07 22:40 | 51.41545 | 8.25445 | 34124 ft | 477 kts | 307° |
| 2026-05-07 22:40 | 51.45696 | 8.17165 | 34130 ft | 477 kts | 307° |
| 2026-05-07 22:41 | 51.49813 | 8.08925 | 34119 ft | 477 kts | 307° |
| 2026-05-07 22:41 | 51.53956 | 8.00601 | 34127 ft | 477 kts | 307° |
| 2026-05-07 22:42 | 51.58099 | 7.92247 | 34110 ft | 478 kts | 307° |
| 2026-05-07 22:42 | 51.62240 | 7.83871 | 34108 ft | 479 kts | 307° |
| 2026-05-07 22:43 | 51.66382 | 7.75469 | 34106 ft | 479 kts | 306° |
| 2026-05-07 22:43 | 51.70512 | 7.67062 | 34110 ft | 478 kts | 306° |
| 2026-05-07 22:44 | 51.74635 | 7.58643 | 34112 ft | 478 kts | 306° |
| 2026-05-07 22:44 | 51.78744 | 7.50222 | 34119 ft | 478 kts | 306° |
| 2026-05-07 22:45 | 51.82854 | 7.41773 | 34123 ft | 478 kts | 306° |
| 2026-05-07 22:45 | 51.86967 | 7.33288 | 34122 ft | 480 kts | 306° |
| 2026-05-07 22:46 | 51.91074 | 7.24790 | 34128 ft | 479 kts | 306° |
| 2026-05-07 22:46 | 51.95144 | 7.16340 | 34123 ft | 479 kts | 306° |
| 2026-05-07 22:47 | 51.99235 | 7.07818 | 34126 ft | 479 kts | 306° |
| 2026-05-07 22:47 | 52.03316 | 6.99289 | 34127 ft | 479 kts | 306° |
| 2026-05-07 22:48 | 52.07396 | 6.90733 | 34124 ft | 479 kts | 306° |
| 2026-05-07 22:48 | 52.11367 | 6.82057 | 34125 ft | 478 kts | 300° |
| 2026-05-07 22:49 | 52.14224 | 6.72353 | 34126 ft | 475 kts | 290° |
| 2026-05-07 22:49 | 52.16159 | 6.63984 | 34119 ft | 475 kts | 288° |
| 2026-05-07 22:50 | 52.18377 | 6.53837 | 34114 ft | 475 kts | 288° |
| 2026-05-07 22:50 | 52.20583 | 6.43683 | 34117 ft | 475 kts | 288° |
| 2026-05-07 22:51 | 52.22797 | 6.33541 | 34117 ft | 475 kts | 288° |
| 2026-05-07 22:51 | 52.25010 | 6.23396 | 34113 ft | 474 kts | 288° |
| 2026-05-07 22:52 | 52.27220 | 6.13249 | 34108 ft | 474 kts | 288° |
| 2026-05-07 22:52 | 52.29412 | 6.03085 | 34109 ft | 474 kts | 288° |
| 2026-05-07 22:53 | 52.31596 | 5.92908 | 34114 ft | 474 kts | 288° |
| 2026-05-07 22:53 | 52.33769 | 5.82746 | 34111 ft | 473 kts | 287° |
| 2026-05-07 22:54 | 52.35932 | 5.72578 | 34113 ft | 473 kts | 287° |
| 2026-05-07 22:54 | 52.38086 | 5.62407 | 34130 ft | 473 kts | 287° |
| 2026-05-07 22:55 | 52.40237 | 5.52225 | 34134 ft | 474 kts | 287° |
| 2026-05-07 22:55 | 52.42361 | 5.42075 | 34131 ft | 474 kts | 287° |
| 2026-05-07 22:56 | 52.44491 | 5.31843 | 34125 ft | 474 kts | 287° |
| 2026-05-07 22:56 | 52.46611 | 5.21615 | 34122 ft | 474 kts | 287° |
| 2026-05-07 22:57 | 52.48725 | 5.11369 | 34120 ft | 474 kts | 287° |
| 2026-05-07 22:57 | 52.50831 | 5.01110 | 34108 ft | 474 kts | 287° |
| 2026-05-07 22:58 | 52.52931 | 4.90861 | 34102 ft | 474 kts | 288° |
| 2026-05-07 22:58 | 52.55899 | 4.81173 | 34123 ft | 477 kts | 300° |
| 2026-05-07 22:59 | 52.59599 | 4.72103 | 34106 ft | 478 kts | 302° |
| 2026-05-07 22:59 | 52.63418 | 4.63137 | 34109 ft | 478 kts | 303° |
| 2026-05-07 23:00 | 52.67161 | 4.54336 | 34127 ft | 478 kts | 302° |
| 2026-05-07 23:00 | 52.70957 | 4.45325 | 34121 ft | 480 kts | 302° |
| 2026-05-07 23:01 | 52.74706 | 4.36198 | 34138 ft | 480 kts | 298° |
| 2026-05-07 23:01 | 52.78047 | 4.26669 | 34120 ft | 480 kts | 297° |
| 2026-05-07 23:02 | 52.81310 | 4.17047 | 34123 ft | 480 kts | 297° |
| 2026-05-07 23:02 | 52.84548 | 4.07414 | 34119 ft | 479 kts | 297° |
| 2026-05-07 23:03 | 52.87783 | 3.97773 | 34121 ft | 479 kts | 297° |
| 2026-05-07 23:03 | 52.90989 | 3.88199 | 34123 ft | 478 kts | 297° |
| 2026-05-07 23:04 | 52.94205 | 3.78562 | 34131 ft | 478 kts | 297° |
| 2026-05-07 23:04 | 52.97423 | 3.68880 | 34132 ft | 481 kts | 297° |
| 2026-05-07 23:05 | 53.00660 | 3.59124 | 34148 ft | 483 kts | 297° |
| 2026-05-07 23:05 | 53.03890 | 3.49346 | 34148 ft | 483 kts | 297° |
| 2026-05-07 23:06 | 53.07101 | 3.39553 | 34123 ft | 482 kts | 296° |
| 2026-05-07 23:06 | 53.09977 | 3.29523 | 34127 ft | 479 kts | 287° |
| 2026-05-07 23:07 | 53.11681 | 3.18817 | 34112 ft | 478 kts | 281° |
| 2026-05-07 23:07 | 53.13122 | 3.08019 | 34112 ft | 478 kts | 280° |
| 2026-05-07 23:08 | 53.14513 | 2.97193 | 34123 ft | 478 kts | 280° |
| 2026-05-07 23:08 | 53.15909 | 2.86372 | 34123 ft | 478 kts | 280° |
| 2026-05-07 23:09 | 53.17310 | 2.75537 | 34124 ft | 478 kts | 280° |
| 2026-05-07 23:09 | 53.18703 | 2.64707 | 34124 ft | 478 kts | 280° |
| 2026-05-07 23:10 | 53.20086 | 2.53879 | 34132 ft | 478 kts | 280° |
| 2026-05-07 23:10 | 53.21461 | 2.43054 | 34125 ft | 476 kts | 280° |
| 2026-05-07 23:11 | 53.22817 | 2.32251 | 34121 ft | 476 kts | 280° |
| 2026-05-07 23:11 | 53.24155 | 2.21489 | 34122 ft | 478 kts | 280° |
| 2026-05-07 23:12 | 53.25501 | 2.10590 | 34123 ft | 480 kts | 280° |
| 2026-05-07 23:12 | 53.26838 | 1.99680 | 34117 ft | 479 kts | 280° |
| 2026-05-07 23:13 | 53.28162 | 1.88800 | 34121 ft | 478 kts | 280° |
| 2026-05-07 23:13 | 53.29475 | 1.77920 | 34120 ft | 477 kts | 280° |
| 2026-05-07 23:14 | 53.30777 | 1.67045 | 34122 ft | 477 kts | 279° |
| 2026-05-07 23:14 | 53.32069 | 1.56157 | 34117 ft | 477 kts | 279° |
| 2026-05-07 23:15 | 53.33404 | 1.45302 | 34117 ft | 475 kts | 282° |
| 2026-05-07 23:15 | 53.34984 | 1.34588 | 34105 ft | 474 kts | 283° |
| 2026-05-07 23:16 | 53.36594 | 1.23888 | 34112 ft | 474 kts | 282° |
| 2026-05-07 23:16 | 53.38160 | 1.13165 | 34105 ft | 474 kts | 282° |
| 2026-05-07 23:17 | 53.39693 | 1.02418 | 34107 ft | 474 kts | 282° |
| 2026-05-07 23:17 | 53.41206 | 0.91698 | 34103 ft | 471 kts | 282° |
| 2026-05-07 23:18 | 53.42703 | 0.81017 | 34100 ft | 471 kts | 282° |
| 2026-05-07 23:18 | 53.44192 | 0.70332 | 34104 ft | 471 kts | 282° |
| 2026-05-07 23:19 | 53.45663 | 0.59706 | 34098 ft | 471 kts | 282° |
| 2026-05-07 23:19 | 53.47132 | 0.49012 | 34103 ft | 470 kts | 282° |
| 2026-05-07 23:20 | 53.48591 | 0.38335 | 34086 ft | 468 kts | 282° |
| 2026-05-07 23:20 | 53.50037 | 0.27685 | 34085 ft | 468 kts | 281° |
| 2026-05-07 23:21 | 53.51468 | 0.17024 | 34084 ft | 468 kts | 281° |
| 2026-05-07 23:21 | 53.52891 | 0.06364 | 34086 ft | 468 kts | 281° |
| 2026-05-07 23:22 | 53.54308 | -0.04312 | 34080 ft | 468 kts | 281° |
| 2026-05-07 23:22 | 53.55707 | -0.14979 | 34084 ft | 467 kts | 281° |
| 2026-05-07 23:23 | 53.57099 | -0.25653 | 34066 ft | 467 kts | 281° |
| 2026-05-07 23:23 | 53.58486 | -0.36334 | 34076 ft | 467 kts | 281° |
| 2026-05-07 23:24 | 53.59860 | -0.47017 | 34065 ft | 467 kts | 281° |
| 2026-05-07 23:24 | 53.61222 | -0.57717 | 34076 ft | 467 kts | 281° |
| 2026-05-07 23:25 | 53.62565 | -0.68332 | 34079 ft | 467 kts | 281° |
| 2026-05-07 23:25 | 53.63910 | -0.79038 | 34061 ft | 467 kts | 281° |
| 2026-05-07 23:26 | 53.65246 | -0.89748 | 34074 ft | 467 kts | 280° |
| 2026-05-07 23:26 | 53.66577 | -1.00464 | 34057 ft | 467 kts | 280° |
| 2026-05-07 23:27 | 53.68544 | -1.16555 | 34057 ft | 467 kts | 280° |
| 2026-05-07 23:27 | 53.69845 | -1.27294 | 34052 ft | 467 kts | 280° |
| 2026-05-07 23:28 | 53.71130 | -1.37976 | 34052 ft | 467 kts | 280° |
| 2026-05-07 23:28 | 53.72418 | -1.48732 | 34059 ft | 467 kts | 280° |
| 2026-05-07 23:29 | 53.73693 | -1.59489 | 34053 ft | 468 kts | 279° |
| 2026-05-07 23:29 | 53.74900 | -1.70283 | 34049 ft | 467 kts | 278° |
| 2026-05-07 23:30 | 53.76049 | -1.81079 | 34049 ft | 467 kts | 278° |
| 2026-05-07 23:30 | 53.77197 | -1.91888 | 34056 ft | 467 kts | 278° |
| 2026-05-07 23:31 | 53.78346 | -2.02687 | 34052 ft | 467 kts | 278° |
| 2026-05-07 23:31 | 53.79491 | -2.13497 | 34049 ft | 467 kts | 277° |
| 2026-05-07 23:32 | 53.80627 | -2.24325 | 34049 ft | 468 kts | 277° |
| 2026-05-07 23:32 | 53.81751 | -2.35157 | 34040 ft | 468 kts | 277° |
| 2026-05-07 23:33 | 53.82867 | -2.46002 | 34042 ft | 467 kts | 277° |
| 2026-05-07 23:33 | 53.83972 | -2.56848 | 34039 ft | 468 kts | 277° |
| 2026-05-07 23:34 | 53.85069 | -2.67702 | 34043 ft | 468 kts | 277° |
| 2026-05-07 23:34 | 53.86157 | -2.78579 | 34031 ft | 469 kts | 277° |
| 2026-05-07 23:35 | 53.87236 | -2.89472 | 34033 ft | 469 kts | 277° |
| 2026-05-07 23:35 | 53.88304 | -3.00364 | 34032 ft | 469 kts | 276° |
| 2026-05-07 23:36 | 53.89356 | -3.11190 | 34034 ft | 469 kts | 276° |
| 2026-05-07 23:36 | 53.90407 | -3.22110 | 34029 ft | 470 kts | 276° |
| 2026-05-07 23:37 | 53.91449 | -3.33052 | 34028 ft | 470 kts | 276° |
| 2026-05-07 23:37 | 53.92482 | -3.44011 | 34026 ft | 470 kts | 276° |
| 2026-05-07 23:38 | 53.94043 | -3.54820 | 34026 ft | 474 kts | 284° |
| 2026-05-07 23:38 | 53.96062 | -3.65472 | 34020 ft | 474 kts | 285° |
| 2026-05-07 23:39 | 53.98142 | -3.76079 | 34021 ft | 473 kts | 285° |
| 2026-05-07 23:39 | 54.00209 | -3.86689 | 34018 ft | 473 kts | 285° |
| 2026-05-07 23:40 | 54.02254 | -3.97307 | 34018 ft | 473 kts | 285° |
| 2026-05-07 23:40 | 54.03941 | -4.06140 | 34010 ft | 473 kts | 284° |
| 2026-05-07 23:41 | 54.06290 | -4.18511 | 34005 ft | 472 kts | 284° |
| 2026-05-07 23:41 | 54.08296 | -4.29143 | 33999 ft | 472 kts | 285° |
| 2026-05-07 23:42 | 54.09974 | -4.38072 | 33994 ft | 472 kts | 285° |
| 2026-05-07 23:42 | 54.11966 | -4.48738 | 33994 ft | 472 kts | 284° |
| 2026-05-07 23:43 | 54.13935 | -4.59333 | 33994 ft | 472 kts | 284° |
| 2026-05-07 23:43 | 54.15907 | -4.70008 | 34006 ft | 472 kts | 284° |
| 2026-05-07 23:44 | 54.17884 | -4.80772 | 33998 ft | 471 kts | 284° |
| 2026-05-07 23:44 | 54.19816 | -4.91351 | 33990 ft | 470 kts | 284° |
| 2026-05-07 23:45 | 54.21750 | -5.02007 | 33990 ft | 469 kts | 284° |
| 2026-05-07 23:45 | 54.23675 | -5.12673 | 33988 ft | 469 kts | 284° |
| 2026-05-07 23:46 | 54.25589 | -5.23338 | 33985 ft | 469 kts | 284° |
| 2026-05-07 23:46 | 54.27495 | -5.34022 | 33995 ft | 469 kts | 283° |
| 2026-05-07 23:47 | 54.29390 | -5.44700 | 33985 ft | 469 kts | 283° |
| 2026-05-07 23:47 | 54.31270 | -5.55369 | 33986 ft | 468 kts | 283° |
| 2026-05-07 23:48 | 54.33143 | -5.66056 | 33980 ft | 468 kts | 283° |
| 2026-05-07 23:48 | 54.35006 | -5.76750 | 33977 ft | 468 kts | 283° |
| 2026-05-07 23:49 | 54.36860 | -5.87452 | 33985 ft | 468 kts | 283° |
| 2026-05-07 23:49 | 54.38703 | -5.98156 | 33965 ft | 467 kts | 283° |
| 2026-05-07 23:50 | 54.40532 | -6.08849 | 33969 ft | 467 kts | 283° |
| 2026-05-07 23:50 | 54.42353 | -6.19560 | 33983 ft | 467 kts | 282° |
| 2026-05-07 23:51 | 54.44163 | -6.30263 | 33981 ft | 464 kts | 282° |
| 2026-05-07 23:51 | 54.45935 | -6.40802 | 33981 ft | 461 kts | 282° |
| 2026-05-07 23:52 | 54.47704 | -6.51396 | 33979 ft | 460 kts | 282° |
| 2026-05-07 23:52 | 54.49460 | -6.61979 | 33981 ft | 460 kts | 282° |
| 2026-05-07 23:53 | 54.51206 | -6.72568 | 33995 ft | 460 kts | 282° |
| 2026-05-07 23:53 | 54.52944 | -6.83169 | 33988 ft | 460 kts | 282° |
| 2026-05-07 23:54 | 54.54673 | -6.93778 | 33989 ft | 460 kts | 281° |
| 2026-05-07 23:54 | 54.56394 | -7.04402 | 33998 ft | 460 kts | 281° |
| 2026-05-07 23:55 | 54.58105 | -7.15038 | 33987 ft | 461 kts | 281° |
| 2026-05-07 23:55 | 54.59808 | -7.25695 | 33991 ft | 461 kts | 281° |
| 2026-05-07 23:56 | 54.61500 | -7.36344 | 33986 ft | 461 kts | 281° |
| 2026-05-07 23:56 | 54.63185 | -7.47017 | 33987 ft | 461 kts | 281° |
| 2026-05-07 23:57 | 54.64859 | -7.57691 | 34004 ft | 461 kts | 281° |
| 2026-05-07 23:57 | 54.66522 | -7.68354 | 33990 ft | 460 kts | 280° |
| 2026-05-07 23:58 | 54.68172 | -7.79014 | 33979 ft | 459 kts | 280° |
| 2026-05-07 23:58 | 54.69812 | -7.89675 | 33996 ft | 459 kts | 280° |
| 2026-05-07 23:59 | 54.71443 | -8.00347 | 33995 ft | 459 kts | 280° |
| 2026-05-07 23:59 | 54.73054 | -8.10952 | 33995 ft | 459 kts | 280° |
| 2026-05-08 00:00 | 54.74676 | -8.21703 | 33993 ft | 458 kts | 280° |
| 2026-05-08 00:00 | 54.76274 | -8.32376 | 33993 ft | 458 kts | 279° |
| 2026-05-08 00:01 | 54.77865 | -8.43061 | 33989 ft | 458 kts | 279° |
| 2026-05-08 00:01 | 54.79437 | -8.53689 | 33988 ft | 458 kts | 279° |
| 2026-05-08 00:02 | 54.81007 | -8.64380 | 33987 ft | 458 kts | 279° |
| 2026-05-08 00:02 | 54.82570 | -8.75096 | 33992 ft | 458 kts | 279° |
| 2026-05-08 00:03 | 54.84122 | -8.85802 | 33987 ft | 457 kts | 279° |
| 2026-05-08 00:03 | 54.85663 | -8.96511 | 33990 ft | 457 kts | 279° |
| 2026-05-08 00:04 | 54.87194 | -9.07223 | 33990 ft | 457 kts | 279° |
| 2026-05-08 00:04 | 54.88716 | -9.17948 | 33993 ft | 457 kts | 279° |
| 2026-05-08 00:05 | 54.90227 | -9.28675 | 34008 ft | 457 kts | 279° |
| 2026-05-08 00:05 | 54.91728 | -9.39396 | 33994 ft | 456 kts | 279° |
| 2026-05-08 00:06 | 54.93218 | -9.50118 | 33992 ft | 456 kts | 279° |
| 2026-05-08 00:06 | 54.94698 | -9.60848 | 33993 ft | 456 kts | 279° |
| 2026-05-08 00:07 | 54.96168 | -9.71572 | 33994 ft | 456 kts | 279° |
| 2026-05-08 00:07 | 54.97629 | -9.82315 | 33996 ft | 456 kts | 279° |
| 2026-05-08 00:08 | 54.99079 | -9.93053 | 34004 ft | 455 kts | 279° |
| 2026-05-08 00:08 | 55.00880 | -10.03666 | 33998 ft | 459 kts | 285° |
| 2026-05-08 00:09 | 55.03148 | -10.14084 | 34001 ft | 460 kts | 287° |
| 2026-05-08 00:09 | 55.05469 | -10.24396 | 33999 ft | 460 kts | 287° |
| 2026-05-08 00:10 | 55.07801 | -10.34787 | 34002 ft | 460 kts | 287° |
| 2026-05-08 00:10 | 55.10115 | -10.45201 | 33996 ft | 461 kts | 286° |
| 2026-05-08 00:11 | 55.12417 | -10.55638 | 34001 ft | 460 kts | 286° |
| 2026-05-08 00:11 | 55.14709 | -10.66085 | 34004 ft | 460 kts | 286° |
| 2026-05-08 00:12 | 55.16992 | -10.76544 | 34004 ft | 460 kts | 286° |
| 2026-05-08 00:12 | 55.19266 | -10.87014 | 34007 ft | 460 kts | 286° |
| 2026-05-08 00:13 | 55.21530 | -10.97491 | 34004 ft | 460 kts | 286° |
| 2026-05-08 00:13 | 55.23784 | -11.07975 | 34015 ft | 460 kts | 286° |
| 2026-05-08 00:14 | 55.26027 | -11.18463 | 34009 ft | 459 kts | 286° |
| 2026-05-08 00:14 | 55.28255 | -11.28929 | 34012 ft | 458 kts | 287° |
| 2026-05-08 00:15 | 55.30473 | -11.39406 | 34009 ft | 458 kts | 286° |
| 2026-05-08 00:15 | 55.32678 | -11.49880 | 34009 ft | 458 kts | 286° |
| 2026-05-08 00:16 | 55.34876 | -11.60371 | 34009 ft | 458 kts | 286° |
| 2026-05-08 00:16 | 55.37068 | -11.70887 | 34009 ft | 458 kts | 286° |
| 2026-05-08 00:17 | 55.39248 | -11.81399 | 34009 ft | 458 kts | 286° |
| 2026-05-08 00:17 | 55.41405 | -11.91861 | 34009 ft | 458 kts | 286° |
| 2026-05-08 00:18 | 55.43568 | -12.02399 | 34009 ft | 458 kts | 286° |
| 2026-05-08 00:18 | 55.45734 | -12.13011 | 34018 ft | 458 kts | 286° |
| 2026-05-08 00:19 | 55.47864 | -12.23504 | 34015 ft | 457 kts | 285° |
| 2026-05-08 00:19 | 55.49997 | -12.34068 | 34022 ft | 457 kts | 285° |
| 2026-05-08 00:20 | 55.52122 | -12.44646 | 34012 ft | 457 kts | 285° |
| 2026-05-08 00:20 | 55.54234 | -12.55219 | 34012 ft | 457 kts | 285° |
| 2026-05-08 00:21 | 55.56337 | -12.65802 | 34023 ft | 457 kts | 285° |
| 2026-05-08 00:21 | 55.58429 | -12.76389 | 34023 ft | 457 kts | 285° |
| 2026-05-08 00:22 | 55.60515 | -12.87001 | 34023 ft | 457 kts | 285° |
| 2026-05-08 00:22 | 55.62590 | -12.97615 | 34038 ft | 457 kts | 285° |
| 2026-05-08 00:23 | 55.64667 | -13.08303 | 34032 ft | 461 kts | 285° |
| 2026-05-08 00:23 | 55.66745 | -13.19049 | 34032 ft | 461 kts | 285° |
| 2026-05-08 00:24 | 55.68814 | -13.29803 | 34031 ft | 461 kts | 285° |
| 2026-05-08 00:24 | 55.70872 | -13.40566 | 34018 ft | 461 kts | 285° |
| 2026-05-08 00:25 | 55.72919 | -13.51331 | 34034 ft | 461 kts | 285° |
| 2026-05-08 00:25 | 55.74957 | -13.62118 | 34038 ft | 461 kts | 285° |
| 2026-05-08 00:26 | 55.76990 | -13.72937 | 34031 ft | 463 kts | 285° |
| 2026-05-08 00:26 | 55.79018 | -13.83787 | 34035 ft | 463 kts | 285° |
| 2026-05-08 00:27 | 55.81037 | -13.94651 | 34043 ft | 464 kts | 285° |
| 2026-05-08 00:27 | 55.83055 | -14.05573 | 34041 ft | 465 kts | 285° |
| 2026-05-08 00:28 | 55.84724 | -14.14654 | 34047 ft | 465 kts | 285° |
| 2026-05-08 00:28 | 55.86723 | -14.25591 | 34047 ft | 465 kts | 285° |
| 2026-05-08 00:29 | 55.88716 | -14.36566 | 34052 ft | 467 kts | 285° |
| 2026-05-08 00:29 | 55.90705 | -14.47576 | 34051 ft | 467 kts | 285° |
| 2026-05-08 00:30 | 55.92685 | -14.58598 | 34053 ft | 467 kts | 285° |
| 2026-05-08 00:30 | 55.94655 | -14.69635 | 34058 ft | 467 kts | 285° |
| 2026-05-08 00:31 | 55.96613 | -14.80676 | 34060 ft | 467 kts | 285° |
| 2026-05-08 00:31 | 55.98564 | -14.91746 | 34061 ft | 468 kts | 285° |
| 2026-05-08 00:32 | 55.99962 | -15.03051 | 34065 ft | 465 kts | 273° |
| 2026-05-08 00:32 | 56.00348 | -15.14591 | 34063 ft | 465 kts | 271° |
| 2026-05-08 00:33 | 56.00551 | -15.26130 | 34069 ft | 465 kts | 270° |
| 2026-05-08 00:33 | 56.00725 | -15.37683 | 34074 ft | 465 kts | 270° |
| 2026-05-08 00:34 | 56.00906 | -15.49231 | 34083 ft | 465 kts | 270° |
| 2026-05-08 00:34 | 56.01087 | -15.60792 | 34083 ft | 466 kts | 270° |
| 2026-05-08 00:35 | 56.01259 | -15.72303 | 34080 ft | 466 kts | 270° |
| 2026-05-08 00:35 | 56.01421 | -15.83883 | 34081 ft | 466 kts | 270° |
| 2026-05-08 00:36 | 56.01571 | -15.95467 | 34089 ft | 466 kts | 270° |
| 2026-05-08 00:36 | 56.01712 | -16.07123 | 34089 ft | 466 kts | 270° |
| 2026-05-08 00:37 | 56.01839 | -16.18635 | 34093 ft | 467 kts | 270° |
| 2026-05-08 00:38 | 56.02012 | -16.36053 | 34100 ft | 468 kts | 270° |
| 2026-05-08 00:38 | 56.02113 | -16.47654 | 34099 ft | 467 kts | 270° |
| 2026-05-08 00:39 | 56.02204 | -16.59273 | 34109 ft | 468 kts | 270° |
| 2026-05-08 00:39 | 56.02283 | -16.70896 | 34103 ft | 467 kts | 270° |
| 2026-05-08 00:40 | 56.02352 | -16.82532 | 34113 ft | 470 kts | 270° |
| 2026-05-08 00:40 | 56.02411 | -16.94206 | 34112 ft | 469 kts | 270° |
| 2026-05-08 00:41 | 56.02458 | -17.05854 | 34121 ft | 470 kts | 270° |
| 2026-05-08 00:41 | 56.02494 | -17.17520 | 34118 ft | 469 kts | 270° |
| 2026-05-08 00:42 | 56.02519 | -17.29180 | 34125 ft | 469 kts | 270° |
| 2026-05-08 00:42 | 56.02533 | -17.40861 | 34125 ft | 470 kts | 270° |
| 2026-05-08 00:43 | 56.02536 | -17.52547 | 34128 ft | 471 kts | 270° |
| 2026-05-08 00:43 | 56.02529 | -17.64259 | 34126 ft | 470 kts | 270° |
| 2026-05-08 00:44 | 56.02510 | -17.75950 | 34133 ft | 471 kts | 270° |
| 2026-05-08 00:44 | 56.02479 | -17.87660 | 34131 ft | 470 kts | 270° |
| 2026-05-08 00:45 | 56.02438 | -17.99339 | 34138 ft | 471 kts | 270° |
| 2026-05-08 00:45 | 56.02386 | -18.11047 | 34137 ft | 470 kts | 269° |
| 2026-05-08 00:46 | 56.02323 | -18.22744 | 34146 ft | 471 kts | 269° |
| 2026-05-08 00:46 | 56.02247 | -18.34445 | 34146 ft | 470 kts | 270° |
| 2026-05-08 00:47 | 56.02162 | -18.46144 | 34143 ft | 471 kts | 270° |
| 2026-05-08 00:47 | 56.02066 | -18.57866 | 34150 ft | 472 kts | 270° |
| 2026-05-08 00:48 | 56.01958 | -18.69593 | 34155 ft | 472 kts | 269° |
| 2026-05-08 00:48 | 56.01839 | -18.81326 | 34152 ft | 471 kts | 269° |
| 2026-05-08 00:49 | 56.01709 | -18.93040 | 34159 ft | 472 kts | 269° |
| 2026-05-08 00:49 | 56.01568 | -19.04772 | 34156 ft | 471 kts | 269° |
| 2026-05-08 00:50 | 56.01415 | -19.16499 | 34163 ft | 473 kts | 270° |
| 2026-05-08 00:50 | 56.01252 | -19.28170 | 34164 ft | 473 kts | 269° |
| 2026-05-08 00:51 | 56.01076 | -19.39995 | 34166 ft | 473 kts | 269° |
| 2026-05-08 00:51 | 56.00890 | -19.51744 | 34168 ft | 472 kts | 269° |
| 2026-05-08 00:52 | 56.00693 | -19.63497 | 34170 ft | 473 kts | 269° |
| 2026-05-08 00:52 | 56.00483 | -19.75239 | 34180 ft | 473 kts | 269° |
| 2026-05-08 00:53 | 56.00265 | -19.86944 | 34180 ft | 474 kts | 269° |
| 2026-05-08 00:53 | 56.00034 | -19.98716 | 34182 ft | 474 kts | 269° |
| 2026-05-08 00:54 | 55.99594 | -20.10477 | 34182 ft | 475 kts | 265° |
| 2026-05-08 00:54 | 55.98816 | -20.22198 | 34190 ft | 475 kts | 264° |
| 2026-05-08 00:55 | 55.98030 | -20.33932 | 34187 ft | 477 kts | 265° |
| 2026-05-08 00:55 | 55.97288 | -20.45722 | 34194 ft | 478 kts | 265° |
| 2026-05-08 00:56 | 55.96561 | -20.57521 | 34197 ft | 478 kts | 265° |
| 2026-05-08 00:56 | 55.95826 | -20.69302 | 34203 ft | 478 kts | 265° |
| 2026-05-08 00:57 | 55.95078 | -20.81083 | 34190 ft | 478 kts | 265° |
| 2026-05-08 00:57 | 55.94316 | -20.92874 | 34206 ft | 479 kts | 265° |
| 2026-05-08 00:58 | 55.93543 | -21.04662 | 34209 ft | 479 kts | 265° |
| 2026-05-08 00:58 | 55.92758 | -21.16450 | 34208 ft | 479 kts | 265° |
| 2026-05-08 00:59 | 55.91961 | -21.28237 | 34212 ft | 479 kts | 265° |
| 2026-05-08 00:59 | 55.91153 | -21.40027 | 34194 ft | 479 kts | 265° |
| 2026-05-08 01:00 | 55.90332 | -21.51814 | 34217 ft | 480 kts | 265° |
| 2026-05-08 01:00 | 55.89501 | -21.63602 | 34222 ft | 480 kts | 265° |
| 2026-05-08 01:01 | 55.88659 | -21.75387 | 34226 ft | 480 kts | 265° |
| 2026-05-08 01:01 | 55.87804 | -21.87182 | 34228 ft | 480 kts | 265° |
| 2026-05-08 01:02 | 55.86938 | -21.98953 | 34222 ft | 480 kts | 265° |
| 2026-05-08 01:02 | 55.86059 | -22.10757 | 34223 ft | 481 kts | 265° |
| 2026-05-08 01:03 | 55.85169 | -22.22553 | 34230 ft | 481 kts | 265° |
| 2026-05-08 01:03 | 55.84267 | -22.34348 | 34234 ft | 481 kts | 265° |
| 2026-05-08 01:04 | 55.83355 | -22.46131 | 34232 ft | 481 kts | 265° |
| 2026-05-08 01:04 | 55.82429 | -22.57917 | 34233 ft | 481 kts | 265° |
| 2026-05-08 01:05 | 55.81493 | -22.69702 | 34244 ft | 481 kts | 265° |
| 2026-05-08 01:05 | 55.80544 | -22.81505 | 34240 ft | 483 kts | 265° |
| 2026-05-08 01:06 | 55.79583 | -22.93312 | 34242 ft | 483 kts | 265° |
| 2026-05-08 01:06 | 55.78617 | -23.05040 | 34243 ft | 483 kts | 265° |
| 2026-05-08 01:07 | 55.77631 | -23.16843 | 34245 ft | 483 kts | 265° |
| 2026-05-08 01:07 | 55.76635 | -23.28644 | 34249 ft | 483 kts | 265° |
| 2026-05-08 01:08 | 55.75627 | -23.40450 | 34247 ft | 483 kts | 265° |
| 2026-05-08 01:08 | 55.74608 | -23.52237 | 34246 ft | 483 kts | 265° |
| 2026-05-08 01:09 | 55.73578 | -23.64026 | 34252 ft | 483 kts | 265° |
| 2026-05-08 01:09 | 55.72536 | -23.75810 | 34254 ft | 484 kts | 265° |
| 2026-05-08 01:10 | 55.71481 | -23.87597 | 34256 ft | 484 kts | 265° |
| 2026-05-08 01:10 | 55.70415 | -23.99386 | 34262 ft | 484 kts | 265° |
| 2026-05-08 01:11 | 55.69339 | -24.11148 | 34264 ft | 484 kts | 265° |
| 2026-05-08 01:11 | 55.68250 | -24.22930 | 34238 ft | 484 kts | 265° |
| 2026-05-08 01:12 | 55.67149 | -24.34696 | 34264 ft | 484 kts | 265° |
| 2026-05-08 01:12 | 55.66228 | -24.44463 | 34271 ft | 484 kts | 265° |
| 2026-05-08 01:13 | 55.65106 | -24.56234 | 34270 ft | 484 kts | 265° |
| 2026-05-08 01:13 | 55.63973 | -24.67991 | 34279 ft | 485 kts | 264° |
| 2026-05-08 01:14 | 55.62829 | -24.79742 | 34250 ft | 485 kts | 265° |
| 2026-05-08 01:14 | 55.61673 | -24.91494 | 34281 ft | 485 kts | 265° |
| 2026-05-08 01:15 | 55.60506 | -25.03245 | 34282 ft | 485 kts | 265° |
| 2026-05-08 01:15 | 55.59327 | -25.14983 | 34290 ft | 485 kts | 265° |
| 2026-05-08 01:16 | 55.58136 | -25.26736 | 34293 ft | 486 kts | 265° |
| 2026-05-08 01:16 | 55.56932 | -25.38488 | 34282 ft | 486 kts | 265° |
| 2026-05-08 01:17 | 55.55723 | -25.50169 | 34288 ft | 486 kts | 265° |
| 2026-05-08 01:17 | 55.54489 | -25.61987 | 34295 ft | 486 kts | 265° |
| 2026-05-08 01:18 | 55.53259 | -25.73650 | 34297 ft | 486 kts | 265° |
| 2026-05-08 01:18 | 55.52002 | -25.85452 | 34301 ft | 486 kts | 265° |
| 2026-05-08 01:19 | 55.50740 | -25.97183 | 34303 ft | 486 kts | 265° |
| 2026-05-08 01:19 | 55.49468 | -26.08897 | 34309 ft | 486 kts | 265° |
| 2026-05-08 01:20 | 55.48186 | -26.20603 | 34306 ft | 486 kts | 265° |
| 2026-05-08 01:20 | 55.46893 | -26.32296 | 34312 ft | 486 kts | 265° |
| 2026-05-08 01:21 | 55.45587 | -26.43997 | 34314 ft | 486 kts | 265° |
| 2026-05-08 01:21 | 55.44269 | -26.55681 | 34314 ft | 486 kts | 265° |
| 2026-05-08 01:22 | 55.42953 | -26.67261 | 34324 ft | 486 kts | 265° |
| 2026-05-08 01:22 | 55.41617 | -26.78910 | 34326 ft | 486 kts | 265° |
| 2026-05-08 01:23 | 55.40269 | -26.90561 | 34328 ft | 486 kts | 265° |
| 2026-05-08 01:23 | 55.38909 | -27.02206 | 34289 ft | 486 kts | 265° |
| 2026-05-08 01:24 | 55.37541 | -27.13831 | 34331 ft | 485 kts | 265° |
| 2026-05-08 01:24 | 55.36161 | -27.25437 | 34329 ft | 485 kts | 265° |
| 2026-05-08 01:25 | 55.34772 | -27.37025 | 34339 ft | 485 kts | 265° |
| 2026-05-08 01:25 | 55.33370 | -27.48619 | 34337 ft | 485 kts | 265° |
| 2026-05-08 01:26 | 55.31957 | -27.60203 | 34327 ft | 486 kts | 266° |
| 2026-05-08 01:26 | 55.30532 | -27.71786 | 34340 ft | 485 kts | 266° |
| 2026-05-08 01:27 | 55.29099 | -27.83347 | 34346 ft | 485 kts | 266° |
| 2026-05-08 01:27 | 55.27654 | -27.94916 | 34339 ft | 485 kts | 265° |
| 2026-05-08 01:28 | 55.26205 | -28.06406 | 34347 ft | 486 kts | 265° |
| 2026-05-08 01:28 | 55.24729 | -28.18022 | 34348 ft | 485 kts | 266° |
| 2026-05-08 01:29 | 55.23253 | -28.29534 | 34352 ft | 484 kts | 266° |
| 2026-05-08 01:29 | 55.21778 | -28.40958 | 34352 ft | 484 kts | 266° |
| 2026-05-08 01:30 | 55.20272 | -28.52530 | 34360 ft | 484 kts | 266° |
| 2026-05-08 01:30 | 55.18765 | -28.64012 | 34360 ft | 484 kts | 266° |
| 2026-05-08 01:31 | 55.17245 | -28.75479 | 34360 ft | 483 kts | 266° |
| 2026-05-08 01:31 | 55.15732 | -28.86822 | 34360 ft | 482 kts | 266° |
| 2026-05-08 01:32 | 55.14200 | -28.98234 | 34360 ft | 482 kts | 266° |
| 2026-05-08 01:32 | 55.12658 | -29.09638 | 34362 ft | 482 kts | 266° |
| 2026-05-08 01:33 | 55.11104 | -29.21032 | 34364 ft | 483 kts | 266° |
| 2026-05-08 01:33 | 55.09537 | -29.32428 | 34371 ft | 483 kts | 266° |
| 2026-05-08 01:34 | 55.07959 | -29.43817 | 34371 ft | 483 kts | 266° |
| 2026-05-08 01:34 | 55.06369 | -29.55216 | 34373 ft | 483 kts | 266° |
| 2026-05-08 01:35 | 55.04768 | -29.66599 | 34376 ft | 483 kts | 266° |
| 2026-05-08 01:35 | 55.03157 | -29.77973 | 34373 ft | 483 kts | 266° |
| 2026-05-08 01:36 | 55.01540 | -29.89286 | 34382 ft | 480 kts | 266° |
| 2026-05-08 01:36 | 54.99921 | -30.00556 | 34381 ft | 480 kts | 266° |
| 2026-05-08 01:37 | 54.98247 | -30.11831 | 34388 ft | 481 kts | 265° |
| 2026-05-08 01:37 | 54.96519 | -30.23090 | 34379 ft | 482 kts | 265° |
| 2026-05-08 01:38 | 54.94785 | -30.34326 | 34379 ft | 479 kts | 265° |
| 2026-05-08 01:38 | 54.93059 | -30.45479 | 34408 ft | 477 kts | 265° |
| 2026-05-08 01:39 | 54.91343 | -30.56546 | 34391 ft | 477 kts | 265° |
| 2026-05-08 01:39 | 54.89606 | -30.67681 | 34394 ft | 478 kts | 264° |
| 2026-05-08 01:40 | 54.87856 | -30.78808 | 34334 ft | 478 kts | 264° |
| 2026-05-08 01:40 | 54.86095 | -30.89914 | 34402 ft | 476 kts | 264° |
| 2026-05-08 01:41 | 54.84332 | -31.00970 | 34400 ft | 476 kts | 264° |
| 2026-05-08 01:41 | 54.82559 | -31.12029 | 34400 ft | 476 kts | 264° |
| 2026-05-08 01:42 | 54.80776 | -31.23079 | 34400 ft | 476 kts | 264° |
| 2026-05-08 01:42 | 54.78981 | -31.34120 | 34378 ft | 476 kts | 263° |
| 2026-05-08 01:43 | 54.77177 | -31.45142 | 34402 ft | 474 kts | 263° |
| 2026-05-08 01:43 | 54.75368 | -31.56123 | 34405 ft | 474 kts | 263° |
| 2026-05-08 01:44 | 54.73550 | -31.67098 | 34403 ft | 474 kts | 262° |
| 2026-05-08 01:44 | 54.71722 | -31.78064 | 34406 ft | 475 kts | 262° |
| 2026-05-08 01:45 | 54.69880 | -31.89035 | 34421 ft | 474 kts | 262° |
| 2026-05-08 01:45 | 54.68039 | -31.99918 | 34400 ft | 470 kts | 262° |
| 2026-05-08 01:46 | 54.66212 | -32.10674 | 34400 ft | 470 kts | 262° |
| 2026-05-08 01:46 | 54.64362 | -32.21505 | 34410 ft | 470 kts | 262° |
| 2026-05-08 01:47 | 54.62502 | -32.32326 | 34406 ft | 470 kts | 261° |
| 2026-05-08 01:47 | 54.60631 | -32.43129 | 34404 ft | 468 kts | 262° |
| 2026-05-08 01:48 | 54.57833 | -32.59156 | 34418 ft | 465 kts | 262° |
| 2026-05-08 01:48 | 54.55964 | -32.69812 | 34415 ft | 465 kts | 262° |
| 2026-05-08 01:49 | 54.54082 | -32.80469 | 34413 ft | 465 kts | 262° |
| 2026-05-08 01:49 | 54.52189 | -32.91121 | 34406 ft | 465 kts | 261° |
| 2026-05-08 01:50 | 54.50296 | -33.01693 | 34417 ft | 461 kts | 261° |
| 2026-05-08 01:50 | 54.48401 | -33.12228 | 34412 ft | 461 kts | 261° |
| 2026-05-08 01:51 | 54.46501 | -33.22745 | 34415 ft | 461 kts | 261° |
| 2026-05-08 01:51 | 54.44588 | -33.33266 | 34418 ft | 461 kts | 261° |
| 2026-05-08 01:52 | 54.42667 | -33.43770 | 34411 ft | 461 kts | 261° |
| 2026-05-08 01:52 | 54.40739 | -33.54239 | 34415 ft | 459 kts | 261° |
| 2026-05-08 01:53 | 54.38808 | -33.64674 | 34414 ft | 459 kts | 261° |
| 2026-05-08 01:53 | 54.36869 | -33.75104 | 34414 ft | 459 kts | 260° |
| 2026-05-08 01:54 | 54.34917 | -33.85538 | 34414 ft | 459 kts | 260° |
| 2026-05-08 01:54 | 54.32958 | -33.95952 | 34409 ft | 459 kts | 260° |
| 2026-05-08 01:55 | 54.31007 | -34.06262 | 34414 ft | 458 kts | 260° |
| 2026-05-08 01:55 | 54.29037 | -34.16617 | 34414 ft | 458 kts | 260° |
| 2026-05-08 01:56 | 54.27057 | -34.26973 | 34414 ft | 458 kts | 260° |
| 2026-05-08 01:56 | 54.25067 | -34.37323 | 34415 ft | 458 kts | 260° |
| 2026-05-08 01:57 | 54.23068 | -34.47664 | 34415 ft | 458 kts | 260° |
| 2026-05-08 01:57 | 54.21057 | -34.58010 | 34411 ft | 458 kts | 259° |
| 2026-05-08 01:58 | 54.19040 | -34.68331 | 34401 ft | 458 kts | 259° |
| 2026-05-08 01:58 | 54.17013 | -34.78648 | 34411 ft | 458 kts | 259° |
| 2026-05-08 01:59 | 54.14980 | -34.88945 | 34410 ft | 458 kts | 259° |
| 2026-05-08 01:59 | 54.12937 | -34.99223 | 34409 ft | 456 kts | 259° |
| 2026-05-08 02:00 | 54.10894 | -35.09458 | 34412 ft | 456 kts | 259° |
| 2026-05-08 02:00 | 54.09191 | -35.17951 | 34408 ft | 456 kts | 259° |
| 2026-05-08 02:01 | 54.07137 | -35.28150 | 34407 ft | 456 kts | 259° |
| 2026-05-08 02:01 | 54.05069 | -35.38358 | 34402 ft | 456 kts | 259° |
| 2026-05-08 02:02 | 54.02991 | -35.48562 | 34403 ft | 457 kts | 259° |
| 2026-05-08 02:02 | 54.00903 | -35.58768 | 34400 ft | 457 kts | 259° |
| 2026-05-08 02:03 | 53.98804 | -35.68973 | 34400 ft | 457 kts | 259° |
| 2026-05-08 02:03 | 53.96694 | -35.79175 | 34400 ft | 457 kts | 259° |
| 2026-05-08 02:04 | 53.94579 | -35.89351 | 34355 ft | 457 kts | 259° |
| 2026-05-08 02:04 | 53.92451 | -35.99546 | 34397 ft | 458 kts | 259° |
| 2026-05-08 02:05 | 53.90310 | -36.09741 | 34400 ft | 459 kts | 258° |
| 2026-05-08 02:05 | 53.88160 | -36.19925 | 34400 ft | 459 kts | 258° |
| 2026-05-08 02:06 | 53.86001 | -36.30103 | 34398 ft | 459 kts | 258° |
| 2026-05-08 02:06 | 53.83836 | -36.40263 | 34387 ft | 459 kts | 258° |
| 2026-05-08 02:07 | 53.81663 | -36.50404 | 34400 ft | 457 kts | 258° |
| 2026-05-08 02:07 | 53.79488 | -36.60507 | 34396 ft | 457 kts | 258° |
| 2026-05-08 02:08 | 53.77318 | -36.70539 | 34397 ft | 457 kts | 258° |
| 2026-05-08 02:08 | 53.75124 | -36.80633 | 34394 ft | 457 kts | 258° |
| 2026-05-08 02:09 | 53.72922 | -36.90714 | 34386 ft | 457 kts | 257° |
| 2026-05-08 02:09 | 53.70721 | -37.00735 | 34393 ft | 454 kts | 257° |
| 2026-05-08 02:10 | 53.68516 | -37.10726 | 34388 ft | 454 kts | 257° |
| 2026-05-08 02:10 | 53.66307 | -37.20698 | 34387 ft | 454 kts | 256° |
| 2026-05-08 02:11 | 53.64087 | -37.30668 | 34388 ft | 454 kts | 256° |
| 2026-05-08 02:11 | 53.61862 | -37.40616 | 34385 ft | 453 kts | 256° |
| 2026-05-08 02:12 | 53.59632 | -37.50527 | 34382 ft | 452 kts | 256° |
| 2026-05-08 02:12 | 53.57399 | -37.60408 | 34381 ft | 452 kts | 256° |
| 2026-05-08 02:13 | 53.55160 | -37.70275 | 34379 ft | 452 kts | 256° |
| 2026-05-08 02:13 | 53.52909 | -37.80149 | 34380 ft | 452 kts | 256° |
| 2026-05-08 02:14 | 53.50653 | -37.89997 | 34371 ft | 451 kts | 255° |
| 2026-05-08 02:14 | 53.48396 | -37.99798 | 34374 ft | 450 kts | 255° |
| 2026-05-08 02:15 | 53.46131 | -38.09592 | 34372 ft | 450 kts | 255° |
| 2026-05-08 02:15 | 53.43858 | -38.19379 | 34369 ft | 450 kts | 255° |
| 2026-05-08 02:16 | 53.41577 | -38.29157 | 34369 ft | 450 kts | 255° |
| 2026-05-08 02:16 | 53.39288 | -38.38925 | 34367 ft | 450 kts | 254° |
| 2026-05-08 02:17 | 53.37004 | -38.48619 | 34365 ft | 450 kts | 254° |
| 2026-05-08 02:17 | 53.34699 | -38.58362 | 34356 ft | 450 kts | 254° |
| 2026-05-08 02:18 | 53.32386 | -38.68093 | 34352 ft | 450 kts | 254° |
| 2026-05-08 02:18 | 53.30064 | -38.77823 | 34340 ft | 450 kts | 253° |
| 2026-05-08 02:19 | 53.27733 | -38.87548 | 34354 ft | 451 kts | 253° |
| 2026-05-08 02:19 | 53.25392 | -38.97266 | 34354 ft | 451 kts | 253° |
| 2026-05-08 02:20 | 53.23043 | -39.06974 | 34358 ft | 451 kts | 253° |
| 2026-05-08 02:20 | 53.20686 | -39.16671 | 34350 ft | 450 kts | 253° |
| 2026-05-08 02:21 | 53.18328 | -39.26328 | 34352 ft | 449 kts | 253° |
| 2026-05-08 02:21 | 53.15967 | -39.35957 | 34350 ft | 449 kts | 253° |
| 2026-05-08 02:22 | 53.13598 | -39.45581 | 34350 ft | 449 kts | 253° |
| 2026-05-08 02:22 | 53.11221 | -39.55192 | 34343 ft | 449 kts | 252° |
| 2026-05-08 02:23 | 53.08833 | -39.64804 | 34344 ft | 449 kts | 252° |
| 2026-05-08 02:23 | 53.06441 | -39.74397 | 34330 ft | 449 kts | 252° |
| 2026-05-08 02:24 | 53.04041 | -39.83976 | 34346 ft | 449 kts | 252° |
| 2026-05-08 02:24 | 53.01632 | -39.93545 | 34335 ft | 449 kts | 252° |
| 2026-05-08 02:25 | 52.99553 | -40.03255 | 34333 ft | 444 kts | 258° |
| 2026-05-08 02:25 | 52.97980 | -40.13168 | 34342 ft | 444 kts | 260° |
| 2026-05-08 02:26 | 52.96486 | -40.23104 | 34324 ft | 444 kts | 259° |
| 2026-05-08 02:26 | 52.94987 | -40.33032 | 34323 ft | 444 kts | 259° |
| 2026-05-08 02:27 | 52.93467 | -40.42958 | 34330 ft | 444 kts | 259° |
| 2026-05-08 02:27 | 52.91935 | -40.52867 | 34336 ft | 444 kts | 259° |
| 2026-05-08 02:28 | 52.90392 | -40.62776 | 34335 ft | 444 kts | 259° |
| 2026-05-08 02:28 | 52.88843 | -40.72668 | 34324 ft | 444 kts | 258° |
| 2026-05-08 02:29 | 52.87298 | -40.82478 | 34321 ft | 442 kts | 258° |
| 2026-05-08 02:29 | 52.85739 | -40.92317 | 34320 ft | 442 kts | 258° |
| 2026-05-08 02:30 | 52.84173 | -41.02141 | 34320 ft | 442 kts | 258° |
| 2026-05-08 02:30 | 52.82598 | -41.11964 | 34314 ft | 442 kts | 258° |
| 2026-05-08 02:31 | 52.81015 | -41.21778 | 34314 ft | 442 kts | 257° |
| 2026-05-08 02:31 | 52.79425 | -41.31587 | 34312 ft | 443 kts | 257° |
| 2026-05-08 02:32 | 52.77820 | -41.41421 | 34308 ft | 443 kts | 257° |
| 2026-05-08 02:32 | 52.76207 | -41.51251 | 34309 ft | 443 kts | 257° |
| 2026-05-08 02:33 | 52.74586 | -41.61069 | 34311 ft | 443 kts | 257° |
| 2026-05-08 02:33 | 52.72959 | -41.70868 | 34311 ft | 443 kts | 257° |
| 2026-05-08 02:34 | 52.71324 | -41.80668 | 34303 ft | 443 kts | 256° |
| 2026-05-08 02:34 | 52.69693 | -41.90380 | 34303 ft | 442 kts | 256° |
| 2026-05-08 02:35 | 52.68033 | -42.00211 | 34305 ft | 442 kts | 256° |
| 2026-05-08 02:35 | 52.66393 | -42.09866 | 34301 ft | 440 kts | 256° |
| 2026-05-08 02:36 | 52.64737 | -42.19567 | 34300 ft | 440 kts | 256° |
| 2026-05-08 02:36 | 52.63075 | -42.29249 | 34296 ft | 440 kts | 256° |
| 2026-05-08 02:37 | 52.61405 | -42.38922 | 34299 ft | 439 kts | 255° |
| 2026-05-08 02:37 | 52.59726 | -42.48597 | 34298 ft | 439 kts | 255° |
| 2026-05-08 02:38 | 52.58041 | -42.58253 | 34295 ft | 439 kts | 255° |
| 2026-05-08 02:38 | 52.56346 | -42.67910 | 34295 ft | 439 kts | 255° |
| 2026-05-08 02:39 | 52.54645 | -42.77552 | 34281 ft | 439 kts | 255° |
| 2026-05-08 02:39 | 52.52934 | -42.87198 | 34291 ft | 440 kts | 255° |
| 2026-05-08 02:40 | 52.51214 | -42.96844 | 34290 ft | 440 kts | 255° |
| 2026-05-08 02:40 | 52.49487 | -43.06477 | 34290 ft | 440 kts | 255° |
| 2026-05-08 02:41 | 52.47752 | -43.16106 | 34287 ft | 440 kts | 255° |
| 2026-05-08 02:41 | 52.46022 | -43.25650 | 34275 ft | 438 kts | 254° |
| 2026-05-08 02:42 | 52.44285 | -43.35190 | 34278 ft | 436 kts | 254° |
| 2026-05-08 02:42 | 52.42542 | -43.44710 | 34276 ft | 436 kts | 254° |
| 2026-05-08 02:43 | 52.40793 | -43.54213 | 34274 ft | 436 kts | 254° |
| 2026-05-08 02:43 | 52.39036 | -43.63716 | 34274 ft | 436 kts | 254° |
| 2026-05-08 02:44 | 52.37272 | -43.73202 | 34268 ft | 436 kts | 254° |
| 2026-05-08 02:44 | 52.35498 | -43.82696 | 34258 ft | 436 kts | 254° |
| 2026-05-08 02:45 | 52.33718 | -43.92173 | 34263 ft | 436 kts | 254° |
| 2026-05-08 02:45 | 52.31931 | -44.01637 | 34262 ft | 436 kts | 253° |
| 2026-05-08 02:46 | 52.30136 | -44.11101 | 34262 ft | 436 kts | 253° |
| 2026-05-08 02:46 | 52.28335 | -44.20547 | 34257 ft | 436 kts | 253° |
| 2026-05-08 02:47 | 52.26524 | -44.29994 | 34254 ft | 436 kts | 253° |
| 2026-05-08 02:47 | 52.24708 | -44.39427 | 34268 ft | 436 kts | 253° |
| 2026-05-08 02:48 | 52.23189 | -44.47274 | 34254 ft | 437 kts | 253° |
| 2026-05-08 02:48 | 52.21053 | -44.58266 | 34251 ft | 438 kts | 253° |
| 2026-05-08 02:49 | 52.19505 | -44.66188 | 34242 ft | 438 kts | 253° |
| 2026-05-08 02:49 | 52.17351 | -44.77156 | 34237 ft | 438 kts | 253° |
| 2026-05-08 02:50 | 52.15787 | -44.85087 | 34241 ft | 440 kts | 253° |
| 2026-05-08 02:50 | 52.13904 | -44.94587 | 34238 ft | 441 kts | 253° |
| 2026-05-08 02:51 | 52.12015 | -45.04071 | 34241 ft | 441 kts | 253° |
| 2026-05-08 02:51 | 52.10115 | -45.13563 | 34234 ft | 441 kts | 253° |
| 2026-05-08 02:52 | 52.08209 | -45.23044 | 34229 ft | 441 kts | 253° |
| 2026-05-08 02:52 | 52.06294 | -45.32522 | 34232 ft | 443 kts | 253° |
| 2026-05-08 02:53 | 52.04358 | -45.42054 | 34230 ft | 444 kts | 253° |
| 2026-05-08 02:53 | 52.02415 | -45.51574 | 34230 ft | 444 kts | 253° |
| 2026-05-08 02:54 | 52.00462 | -45.61098 | 34229 ft | 446 kts | 253° |
| 2026-05-08 02:54 | 51.98486 | -45.70697 | 34219 ft | 450 kts | 253° |
| 2026-05-08 02:55 | 51.95485 | -45.85177 | 34217 ft | 453 kts | 252° |
| 2026-05-08 02:56 | 51.93468 | -45.94850 | 34211 ft | 453 kts | 252° |
| 2026-05-08 02:56 | 51.91441 | -46.04519 | 34203 ft | 453 kts | 252° |
| 2026-05-08 02:57 | 51.89407 | -46.14180 | 34202 ft | 453 kts | 252° |
| 2026-05-08 02:57 | 51.87379 | -46.23768 | 34195 ft | 453 kts | 252° |
| 2026-05-08 02:58 | 51.85327 | -46.33426 | 34197 ft | 454 kts | 252° |
| 2026-05-08 02:58 | 51.83265 | -46.43078 | 34197 ft | 454 kts | 252° |
| 2026-05-08 02:59 | 51.81192 | -46.52736 | 34190 ft | 455 kts | 252° |
| 2026-05-08 02:59 | 51.79114 | -46.62378 | 34194 ft | 455 kts | 251° |
| 2026-05-08 03:00 | 51.77026 | -46.72018 | 34186 ft | 455 kts | 251° |
| 2026-05-08 03:00 | 51.74937 | -46.81623 | 34195 ft | 453 kts | 251° |
| 2026-05-08 03:01 | 51.72841 | -46.91201 | 34194 ft | 453 kts | 251° |
| 2026-05-08 03:01 | 51.70739 | -47.00768 | 34186 ft | 453 kts | 251° |
| 2026-05-08 03:02 | 51.68628 | -47.10333 | 34186 ft | 453 kts | 251° |
| 2026-05-08 03:02 | 51.66511 | -47.19881 | 34181 ft | 452 kts | 251° |
| 2026-05-08 03:03 | 51.64411 | -47.29312 | 34184 ft | 448 kts | 250° |
| 2026-05-08 03:03 | 51.62292 | -47.38781 | 34184 ft | 447 kts | 250° |
| 2026-05-08 03:04 | 51.60194 | -47.48119 | 34181 ft | 447 kts | 250° |
| 2026-05-08 03:04 | 51.58074 | -47.57510 | 34181 ft | 447 kts | 250° |
| 2026-05-08 03:05 | 51.55947 | -47.66889 | 34182 ft | 446 kts | 250° |
| 2026-05-08 03:05 | 51.53826 | -47.76205 | 34182 ft | 442 kts | 250° |
| 2026-05-08 03:06 | 51.51711 | -47.85451 | 34189 ft | 441 kts | 250° |
| 2026-05-08 03:06 | 51.49591 | -47.94677 | 34172 ft | 440 kts | 249° |
| 2026-05-08 03:07 | 51.47467 | -48.03879 | 34166 ft | 440 kts | 249° |
| 2026-05-08 03:07 | 51.45338 | -48.13066 | 34163 ft | 440 kts | 249° |
| 2026-05-08 03:08 | 51.43201 | -48.22254 | 34162 ft | 440 kts | 249° |
| 2026-05-08 03:08 | 51.41054 | -48.31435 | 34154 ft | 440 kts | 249° |
| 2026-05-08 03:09 | 51.38901 | -48.40605 | 34143 ft | 440 kts | 249° |
| 2026-05-08 03:09 | 51.36741 | -48.49768 | 34143 ft | 440 kts | 249° |
| 2026-05-08 03:10 | 51.34573 | -48.58927 | 34141 ft | 440 kts | 249° |
| 2026-05-08 03:10 | 51.32405 | -48.68046 | 34134 ft | 437 kts | 249° |
| 2026-05-08 03:11 | 51.30241 | -48.77111 | 34124 ft | 436 kts | 249° |
| 2026-05-08 03:11 | 51.28073 | -48.86154 | 34124 ft | 436 kts | 248° |
| 2026-05-08 03:12 | 51.25913 | -48.95123 | 34124 ft | 436 kts | 248° |
| 2026-05-08 03:12 | 51.23731 | -49.04148 | 34119 ft | 435 kts | 248° |
| 2026-05-08 03:13 | 51.21555 | -49.13115 | 34119 ft | 433 kts | 248° |
| 2026-05-08 03:13 | 51.19375 | -49.22062 | 34099 ft | 433 kts | 248° |
| 2026-05-08 03:14 | 51.17187 | -49.31003 | 34097 ft | 433 kts | 248° |
| 2026-05-08 03:14 | 51.14990 | -49.39941 | 34091 ft | 433 kts | 248° |
| 2026-05-08 03:15 | 51.12788 | -49.48866 | 34096 ft | 433 kts | 248° |
| 2026-05-08 03:15 | 51.10579 | -49.57783 | 34085 ft | 433 kts | 248° |
| 2026-05-08 03:16 | 51.08365 | -49.66686 | 34075 ft | 433 kts | 248° |
| 2026-05-08 03:16 | 51.06147 | -49.75572 | 34067 ft | 433 kts | 248° |
| 2026-05-08 03:17 | 51.03920 | -49.84454 | 34064 ft | 433 kts | 247° |
| 2026-05-08 03:17 | 51.01686 | -49.93331 | 34059 ft | 433 kts | 247° |
| 2026-05-08 03:18 | 50.99450 | -50.02193 | 34058 ft | 432 kts | 248° |
| 2026-05-08 03:18 | 50.97303 | -50.11077 | 34032 ft | 430 kts | 248° |
| 2026-05-08 03:19 | 50.95207 | -50.19906 | 34040 ft | 426 kts | 248° |
| 2026-05-08 03:19 | 50.93108 | -50.28667 | 34031 ft | 425 kts | 248° |
| 2026-05-08 03:20 | 50.90991 | -50.37413 | 34025 ft | 425 kts | 248° |
| 2026-05-08 03:20 | 50.88860 | -50.46161 | 34024 ft | 425 kts | 247° |
| 2026-05-08 03:21 | 50.86738 | -50.54841 | 34000 ft | 426 kts | 247° |
| 2026-05-08 03:21 | 50.84589 | -50.63593 | 33999 ft | 426 kts | 247° |
| 2026-05-08 03:22 | 50.82436 | -50.72335 | 34002 ft | 426 kts | 247° |
| 2026-05-08 03:22 | 50.80278 | -50.81056 | 33985 ft | 426 kts | 247° |
| 2026-05-08 03:23 | 50.78111 | -50.89782 | 33984 ft | 426 kts | 247° |
| 2026-05-08 03:23 | 50.75936 | -50.98509 | 33974 ft | 427 kts | 247° |
| 2026-05-08 03:24 | 50.73753 | -51.07231 | 33964 ft | 427 kts | 247° |
| 2026-05-08 03:24 | 50.71565 | -51.15945 | 33973 ft | 426 kts | 246° |
| 2026-05-08 03:25 | 50.69387 | -51.24582 | 33960 ft | 423 kts | 246° |
| 2026-05-08 03:25 | 50.67206 | -51.33191 | 33947 ft | 422 kts | 246° |
| 2026-05-08 03:26 | 50.65022 | -51.41781 | 33941 ft | 421 kts | 246° |
| 2026-05-08 03:26 | 50.62842 | -51.50325 | 33942 ft | 420 kts | 246° |
| 2026-05-08 03:27 | 50.60655 | -51.58862 | 33935 ft | 420 kts | 246° |
| 2026-05-08 03:27 | 50.58463 | -51.67389 | 33936 ft | 420 kts | 246° |
| 2026-05-08 03:28 | 50.56278 | -51.75857 | 33914 ft | 420 kts | 245° |
| 2026-05-08 03:28 | 50.54075 | -51.84357 | 33913 ft | 419 kts | 246° |
| 2026-05-08 03:29 | 50.51875 | -51.92821 | 33909 ft | 417 kts | 246° |
| 2026-05-08 03:29 | 50.49851 | -52.01346 | 33907 ft | 418 kts | 251° |
| 2026-05-08 03:30 | 50.47601 | -52.14592 | 33902 ft | 417 kts | 252° |
| 2026-05-08 03:31 | 50.44751 | -52.32132 | 33891 ft | 413 kts | 253° |
| 2026-05-08 03:32 | 50.42608 | -52.45091 | 33876 ft | 410 kts | 253° |
| 2026-05-08 03:32 | 50.41160 | -52.53778 | 33873 ft | 409 kts | 253° |
| 2026-05-08 03:33 | 50.39714 | -52.62408 | 33874 ft | 409 kts | 253° |
| 2026-05-08 03:33 | 50.38273 | -52.70964 | 33875 ft | 409 kts | 253° |
| 2026-05-08 03:34 | 50.36818 | -52.79565 | 33855 ft | 409 kts | 253° |
| 2026-05-08 03:34 | 50.35359 | -52.88144 | 33850 ft | 406 kts | 253° |
| 2026-05-08 03:35 | 50.33903 | -52.96672 | 33848 ft | 400 kts | 253° |
| 2026-05-08 03:35 | 50.32476 | -53.04986 | 33838 ft | 397 kts | 253° |
| 2026-05-08 03:36 | 50.31036 | -53.13330 | 33838 ft | 397 kts | 253° |
| 2026-05-08 03:36 | 50.29592 | -53.21660 | 33832 ft | 396 kts | 253° |
| 2026-05-08 03:37 | 50.28143 | -53.29977 | 33827 ft | 396 kts | 253° |
| 2026-05-08 03:37 | 50.26937 | -53.36872 | 33820 ft | 395 kts | 253° |
| 2026-05-08 03:38 | 50.25510 | -53.45004 | 33813 ft | 383 kts | 253° |
| 2026-05-08 03:38 | 50.24100 | -53.53000 | 33813 ft | 381 kts | 253° |
| 2026-05-08 03:39 | 50.22685 | -53.60981 | 33811 ft | 381 kts | 253° |
| 2026-05-08 03:39 | 50.21267 | -53.68948 | 33812 ft | 381 kts | 252° |
| 2026-05-08 03:40 | 50.19849 | -53.76885 | 33788 ft | 379 kts | 252° |
| 2026-05-08 03:40 | 50.18425 | -53.84807 | 33788 ft | 378 kts | 252° |
| 2026-05-08 03:41 | 50.17000 | -53.92704 | 33785 ft | 378 kts | 252° |
| 2026-05-08 03:41 | 50.15570 | -54.00597 | 33773 ft | 378 kts | 252° |
| 2026-05-08 03:42 | 50.14138 | -54.08467 | 33769 ft | 377 kts | 252° |
| 2026-05-08 03:42 | 50.12701 | -54.16332 | 33769 ft | 377 kts | 252° |
| 2026-05-08 03:43 | 50.11263 | -54.24172 | 33761 ft | 376 kts | 252° |
| 2026-05-08 03:43 | 50.09820 | -54.32000 | 33754 ft | 376 kts | 252° |
| 2026-05-08 03:44 | 50.08372 | -54.39824 | 33747 ft | 375 kts | 252° |
| 2026-05-08 03:44 | 50.06929 | -54.47594 | 33760 ft | 371 kts | 251° |
| 2026-05-08 03:45 | 50.05495 | -54.55281 | 33745 ft | 369 kts | 251° |
| 2026-05-08 03:45 | 50.04058 | -54.62944 | 33730 ft | 369 kts | 251° |
| 2026-05-08 03:46 | 50.02626 | -54.70552 | 33738 ft | 369 kts | 251° |
| 2026-05-08 03:46 | 50.01183 | -54.78191 | 33739 ft | 368 kts | 251° |
| 2026-05-08 03:47 | 49.99736 | -54.85820 | 33729 ft | 368 kts | 251° |
| 2026-05-08 03:47 | 49.98287 | -54.93431 | 33731 ft | 367 kts | 250° |
| 2026-05-08 03:48 | 49.96836 | -55.01019 | 33721 ft | 366 kts | 250° |
| 2026-05-08 03:48 | 49.95381 | -55.08595 | 33715 ft | 366 kts | 250° |
| 2026-05-08 03:49 | 49.93922 | -55.16159 | 33716 ft | 366 kts | 250° |
| 2026-05-08 03:49 | 49.92460 | -55.23715 | 33716 ft | 365 kts | 249° |
| 2026-05-08 03:50 | 49.91009 | -55.31185 | 33709 ft | 363 kts | 249° |
| 2026-05-08 03:50 | 49.89538 | -55.38728 | 33708 ft | 363 kts | 249° |
| 2026-05-08 03:51 | 49.88072 | -55.46212 | 33708 ft | 363 kts | 249° |
| 2026-05-08 03:51 | 49.86611 | -55.53644 | 33700 ft | 363 kts | 249° |
| 2026-05-08 03:52 | 49.85134 | -55.61127 | 33697 ft | 363 kts | 249° |
| 2026-05-08 03:52 | 49.83654 | -55.68595 | 33696 ft | 362 kts | 248° |
| 2026-05-08 03:53 | 49.82171 | -55.76055 | 33693 ft | 362 kts | 248° |
| 2026-05-08 03:53 | 49.80683 | -55.83516 | 33686 ft | 363 kts | 248° |
| 2026-05-08 03:54 | 49.79189 | -55.90966 | 33685 ft | 363 kts | 248° |
| 2026-05-08 03:54 | 49.77685 | -55.98449 | 33687 ft | 365 kts | 248° |
| 2026-05-08 03:55 | 49.76168 | -56.05950 | 33688 ft | 366 kts | 248° |
| 2026-05-08 03:55 | 49.74646 | -56.13455 | 33680 ft | 366 kts | 248° |
| 2026-05-08 03:56 | 49.73120 | -56.20952 | 33677 ft | 366 kts | 247° |
| 2026-05-08 03:56 | 49.71588 | -56.28453 | 33676 ft | 366 kts | 247° |
| 2026-05-08 03:57 | 49.70053 | -56.35944 | 33677 ft | 366 kts | 247° |
| 2026-05-08 03:57 | 49.68520 | -56.43391 | 33682 ft | 366 kts | 246° |
| 2026-05-08 03:58 | 49.66957 | -56.50953 | 33675 ft | 368 kts | 246° |
| 2026-05-08 03:58 | 49.65396 | -56.58482 | 33677 ft | 369 kts | 246° |
| 2026-05-08 03:59 | 49.63829 | -56.66012 | 33677 ft | 368 kts | 246° |
| 2026-05-08 03:59 | 49.62259 | -56.73532 | 33673 ft | 368 kts | 246° |
| 2026-05-08 04:00 | 49.60695 | -56.80984 | 33666 ft | 367 kts | 246° |
| 2026-05-08 04:00 | 49.59117 | -56.88472 | 33669 ft | 367 kts | 246° |
| 2026-05-08 04:01 | 49.57534 | -56.95956 | 33669 ft | 369 kts | 245° |
| 2026-05-08 04:01 | 49.55929 | -57.03513 | 33658 ft | 372 kts | 245° |
| 2026-05-08 04:02 | 49.54321 | -57.11079 | 33658 ft | 372 kts | 245° |
| 2026-05-08 04:02 | 49.52709 | -57.18634 | 33658 ft | 371 kts | 245° |
| 2026-05-08 04:03 | 49.51091 | -57.26180 | 33655 ft | 371 kts | 245° |
| 2026-05-08 04:03 | 49.48653 | -57.37497 | 33654 ft | 372 kts | 245° |
| 2026-05-08 04:04 | 49.47018 | -57.45047 | 33661 ft | 373 kts | 244° |
| 2026-05-08 04:04 | 49.45382 | -57.52584 | 33644 ft | 368 kts | 245° |
| 2026-05-08 04:05 | 49.43765 | -57.60023 | 33644 ft | 367 kts | 244° |
| 2026-05-08 04:05 | 49.42139 | -57.67445 | 33637 ft | 367 kts | 244° |
| 2026-05-08 04:06 | 49.40507 | -57.74874 | 33640 ft | 367 kts | 245° |
| 2026-05-08 04:06 | 49.38876 | -57.82274 | 33642 ft | 366 kts | 244° |
| 2026-05-08 04:07 | 49.37238 | -57.89676 | 33642 ft | 366 kts | 244° |
| 2026-05-08 04:07 | 49.35605 | -57.97033 | 33638 ft | 367 kts | 244° |
| 2026-05-08 04:08 | 49.33947 | -58.04482 | 33649 ft | 367 kts | 244° |
| 2026-05-08 04:08 | 49.32293 | -58.11879 | 33650 ft | 367 kts | 244° |
| 2026-05-08 04:09 | 49.30645 | -58.19221 | 33738 ft | 367 kts | 243° |
| 2026-05-08 04:09 | 49.28997 | -58.26554 | 33654 ft | 362 kts | 243° |
| 2026-05-08 04:10 | 49.27357 | -58.33824 | 33655 ft | 361 kts | 243° |
| 2026-05-08 04:10 | 49.25711 | -58.41079 | 33655 ft | 361 kts | 243° |
| 2026-05-08 04:11 | 49.24062 | -58.48326 | 33658 ft | 360 kts | 243° |
| 2026-05-08 04:11 | 49.22410 | -58.55564 | 33663 ft | 360 kts | 243° |
| 2026-05-08 04:12 | 49.20752 | -58.62801 | 33661 ft | 360 kts | 243° |
| 2026-05-08 04:12 | 49.19092 | -58.70027 | 33662 ft | 360 kts | 243° |
| 2026-05-08 04:13 | 49.17427 | -58.77247 | 33663 ft | 360 kts | 243° |
| 2026-05-08 04:13 | 49.15758 | -58.84466 | 33665 ft | 360 kts | 243° |
| 2026-05-08 04:14 | 49.14085 | -58.91673 | 33703 ft | 360 kts | 242° |
| 2026-05-08 04:14 | 49.12412 | -58.98866 | 33665 ft | 358 kts | 242° |
| 2026-05-08 04:15 | 49.10752 | -59.05971 | 33667 ft | 358 kts | 242° |
| 2026-05-08 04:15 | 49.09076 | -59.13116 | 33666 ft | 358 kts | 242° |
| 2026-05-08 04:16 | 49.07396 | -59.20255 | 33667 ft | 358 kts | 242° |
| 2026-05-08 04:16 | 49.05713 | -59.27386 | 33667 ft | 358 kts | 242° |
| 2026-05-08 04:17 | 49.04025 | -59.34519 | 33677 ft | 358 kts | 242° |
| 2026-05-08 04:17 | 49.02332 | -59.41649 | 33671 ft | 358 kts | 242° |
| 2026-05-08 04:18 | 49.00635 | -59.48768 | 33664 ft | 358 kts | 242° |
| 2026-05-08 04:18 | 48.98933 | -59.55884 | 33676 ft | 358 kts | 242° |
| 2026-05-08 04:19 | 48.97228 | -59.62993 | 33734 ft | 358 kts | 241° |
| 2026-05-08 04:19 | 48.95526 | -59.70071 | 33666 ft | 355 kts | 241° |
| 2026-05-08 04:20 | 48.93829 | -59.77108 | 33669 ft | 354 kts | 241° |
| 2026-05-08 04:20 | 48.92127 | -59.84131 | 33667 ft | 354 kts | 240° |
| 2026-05-08 04:21 | 48.90413 | -59.91174 | 33669 ft | 356 kts | 240° |
| 2026-05-08 04:21 | 48.88695 | -59.98223 | 33670 ft | 356 kts | 240° |
| 2026-05-08 04:22 | 48.86973 | -60.05271 | 33669 ft | 356 kts | 240° |
| 2026-05-08 04:22 | 48.85257 | -60.12266 | 33672 ft | 356 kts | 240° |
| 2026-05-08 04:23 | 48.83527 | -60.19299 | 33673 ft | 356 kts | 240° |
| 2026-05-08 04:23 | 48.81793 | -60.26323 | 33672 ft | 356 kts | 240° |
| 2026-05-08 04:24 | 48.80054 | -60.33348 | 33726 ft | 356 kts | 239° |
| 2026-05-08 04:24 | 48.78312 | -60.40363 | 33671 ft | 355 kts | 239° |
| 2026-05-08 04:25 | 48.76568 | -60.47359 | 33675 ft | 354 kts | 239° |
| 2026-05-08 04:25 | 48.74822 | -60.54340 | 33675 ft | 354 kts | 239° |
| 2026-05-08 04:26 | 48.73070 | -60.61325 | 33676 ft | 354 kts | 239° |
| 2026-05-08 04:26 | 48.71316 | -60.68298 | 33680 ft | 354 kts | 239° |
| 2026-05-08 04:27 | 48.69857 | -60.74085 | 33680 ft | 354 kts | 239° |
| 2026-05-08 04:27 | 48.68717 | -60.78629 | 33685 ft | 340 kts | 239° |
| 2026-05-08 04:27 | 48.67891 | -60.81936 | 33686 ft | 333 kts | 239° |
| 2026-05-08 04:28 | 48.66238 | -60.88442 | 33681 ft | 331 kts | 238° |
| 2026-05-08 04:28 | 48.64842 | -60.93884 | 33680 ft | 331 kts | 238° |
| 2026-05-08 04:29 | 48.63187 | -61.00342 | 33680 ft | 331 kts | 238° |
| 2026-05-08 04:29 | 48.61523 | -61.06844 | 33687 ft | 332 kts | 239° |
| 2026-05-08 04:30 | 48.59852 | -61.13359 | 33689 ft | 333 kts | 239° |
| 2026-05-08 04:30 | 48.58177 | -61.19872 | 33687 ft | 333 kts | 239° |
| 2026-05-08 04:31 | 48.56500 | -61.26376 | 33689 ft | 332 kts | 238° |
| 2026-05-08 04:31 | 48.54820 | -61.32867 | 33688 ft | 332 kts | 238° |
| 2026-05-08 04:32 | 48.53136 | -61.39354 | 33690 ft | 332 kts | 238° |
| 2026-05-08 04:32 | 48.51449 | -61.45833 | 33695 ft | 332 kts | 238° |
| 2026-05-08 04:33 | 48.49758 | -61.52313 | 33680 ft | 332 kts | 238° |
| 2026-05-08 04:33 | 48.48063 | -61.58786 | 33694 ft | 332 kts | 238° |
| 2026-05-08 04:34 | 48.46365 | -61.65255 | 33696 ft | 332 kts | 238° |
| 2026-05-08 04:34 | 48.44663 | -61.71724 | 33762 ft | 332 kts | 238° |
| 2026-05-08 04:35 | 48.42947 | -61.78212 | 33694 ft | 339 kts | 238° |
| 2026-05-08 04:35 | 48.41191 | -61.84834 | 33690 ft | 341 kts | 238° |
| 2026-05-08 04:36 | 48.39436 | -61.91459 | 33693 ft | 341 kts | 238° |
| 2026-05-08 04:36 | 48.37675 | -61.98082 | 33696 ft | 341 kts | 238° |
| 2026-05-08 04:37 | 48.35911 | -62.04690 | 33694 ft | 341 kts | 238° |
| 2026-05-08 04:37 | 48.34143 | -62.11296 | 33696 ft | 341 kts | 238° |
| 2026-05-08 04:38 | 48.32368 | -62.17905 | 33690 ft | 342 kts | 238° |
| 2026-05-08 04:38 | 48.30582 | -62.24533 | 33696 ft | 343 kts | 238° |
| 2026-05-08 04:39 | 48.28789 | -62.31177 | 33693 ft | 343 kts | 238° |
| 2026-05-08 04:39 | 48.26993 | -62.37813 | 33694 ft | 343 kts | 238° |
| 2026-05-08 04:40 | 48.25181 | -62.44471 | 33703 ft | 350 kts | 239° |
| 2026-05-08 04:40 | 48.23313 | -62.51303 | 33698 ft | 356 kts | 239° |
| 2026-05-08 04:41 | 48.21435 | -62.58194 | 33702 ft | 357 kts | 239° |
| 2026-05-08 04:41 | 48.19560 | -62.65062 | 33692 ft | 356 kts | 239° |
| 2026-05-08 04:42 | 48.17678 | -62.71920 | 33694 ft | 356 kts | 239° |
| 2026-05-08 04:42 | 48.15803 | -62.78725 | 33695 ft | 356 kts | 239° |
| 2026-05-08 04:43 | 48.13911 | -62.85570 | 33692 ft | 356 kts | 239° |
| 2026-05-08 04:43 | 48.12017 | -62.92406 | 33693 ft | 356 kts | 239° |
| 2026-05-08 04:44 | 48.10119 | -62.99235 | 33694 ft | 355 kts | 239° |
| 2026-05-08 04:44 | 48.08216 | -63.06063 | 33701 ft | 356 kts | 239° |
| 2026-05-08 04:45 | 48.06285 | -63.12955 | 33695 ft | 362 kts | 239° |
| 2026-05-08 04:45 | 48.04340 | -63.19896 | 33696 ft | 362 kts | 239° |
| 2026-05-08 04:46 | 48.02393 | -63.26833 | 33693 ft | 362 kts | 239° |
| 2026-05-08 04:46 | 48.00441 | -63.33759 | 33690 ft | 362 kts | 239° |
| 2026-05-08 04:47 | 47.98495 | -63.40644 | 33693 ft | 362 kts | 239° |
| 2026-05-08 04:47 | 47.96532 | -63.47565 | 33693 ft | 362 kts | 239° |
| 2026-05-08 04:48 | 47.94567 | -63.54474 | 33693 ft | 362 kts | 239° |
| 2026-05-08 04:48 | 47.92597 | -63.61382 | 33692 ft | 362 kts | 239° |
| 2026-05-08 04:49 | 47.90625 | -63.68279 | 33695 ft | 362 kts | 239° |
| 2026-05-08 04:49 | 47.88641 | -63.75188 | 33711 ft | 365 kts | 239° |
| 2026-05-08 04:50 | 47.86625 | -63.82182 | 33690 ft | 369 kts | 239° |
| 2026-05-08 04:50 | 47.84597 | -63.89218 | 33691 ft | 370 kts | 239° |
| 2026-05-08 04:51 | 47.82564 | -63.96253 | 33685 ft | 370 kts | 239° |
| 2026-05-08 04:51 | 47.80524 | -64.03287 | 33686 ft | 371 kts | 239° |
| 2026-05-08 04:52 | 47.78479 | -64.10320 | 33689 ft | 371 kts | 239° |
| 2026-05-08 04:52 | 47.76427 | -64.17350 | 33688 ft | 371 kts | 239° |
| 2026-05-08 04:53 | 47.74372 | -64.24372 | 33689 ft | 371 kts | 239° |
| 2026-05-08 04:53 | 47.72311 | -64.31393 | 33688 ft | 370 kts | 239° |
| 2026-05-08 04:54 | 47.70249 | -64.38398 | 33687 ft | 371 kts | 239° |
| 2026-05-08 04:54 | 47.68161 | -64.45453 | 33689 ft | 376 kts | 240° |
| 2026-05-08 04:55 | 47.66045 | -64.52596 | 33690 ft | 379 kts | 240° |
| 2026-05-08 04:55 | 47.63928 | -64.59740 | 33689 ft | 378 kts | 240° |
| 2026-05-08 04:56 | 47.61803 | -64.66882 | 33692 ft | 378 kts | 240° |
| 2026-05-08 04:56 | 47.59689 | -64.73963 | 33693 ft | 378 kts | 240° |
| 2026-05-08 04:57 | 47.57555 | -64.81087 | 33683 ft | 378 kts | 240° |
| 2026-05-08 04:57 | 47.55412 | -64.88218 | 33686 ft | 379 kts | 240° |
| 2026-05-08 04:58 | 47.53264 | -64.95348 | 33687 ft | 380 kts | 240° |
| 2026-05-08 04:58 | 47.51108 | -65.02483 | 33683 ft | 380 kts | 240° |
| 2026-05-08 04:59 | 47.48944 | -65.09623 | 33685 ft | 382 kts | 240° |
| 2026-05-08 04:59 | 47.46763 | -65.16798 | 33686 ft | 383 kts | 240° |
| 2026-05-08 05:00 | 47.44575 | -65.23984 | 33677 ft | 383 kts | 240° |
| 2026-05-08 05:00 | 47.42388 | -65.31142 | 33697 ft | 382 kts | 240° |
| 2026-05-08 05:01 | 47.40196 | -65.38298 | 33689 ft | 382 kts | 240° |
| 2026-05-08 05:01 | 47.37998 | -65.45448 | 33689 ft | 382 kts | 240° |
| 2026-05-08 05:02 | 47.35797 | -65.52587 | 33689 ft | 382 kts | 240° |
| 2026-05-08 05:02 | 47.33593 | -65.59720 | 33700 ft | 382 kts | 240° |
| 2026-05-08 05:03 | 47.31396 | -65.66807 | 33688 ft | 382 kts | 240° |
| 2026-05-08 05:03 | 47.29171 | -65.73959 | 33707 ft | 387 kts | 240° |
| 2026-05-08 05:04 | 47.26918 | -65.81182 | 33706 ft | 388 kts | 240° |
| 2026-05-08 05:04 | 47.24660 | -65.88408 | 33712 ft | 388 kts | 240° |
| 2026-05-08 05:05 | 47.22400 | -65.95620 | 33712 ft | 388 kts | 240° |
| 2026-05-08 05:05 | 47.20133 | -66.02830 | 33714 ft | 388 kts | 240° |
| 2026-05-08 05:06 | 47.17864 | -66.10024 | 33705 ft | 388 kts | 240° |
| 2026-05-08 05:06 | 47.15594 | -66.17202 | 33717 ft | 387 kts | 240° |
| 2026-05-08 05:07 | 47.13322 | -66.24369 | 33714 ft | 387 kts | 240° |
| 2026-05-08 05:07 | 47.11046 | -66.31524 | 33762 ft | 387 kts | 241° |
| 2026-05-08 05:08 | 47.08752 | -66.38714 | 33713 ft | 391 kts | 241° |
| 2026-05-08 05:08 | 47.06438 | -66.45946 | 33712 ft | 392 kts | 241° |
| 2026-05-08 05:09 | 47.04125 | -66.53161 | 33717 ft | 390 kts | 241° |
| 2026-05-08 05:09 | 47.01828 | -66.60307 | 33718 ft | 390 kts | 241° |
| 2026-05-08 05:10 | 46.98353 | -66.71074 | 33724 ft | 390 kts | 241° |
| 2026-05-08 05:11 | 46.96032 | -66.78240 | 33722 ft | 390 kts | 240° |
| 2026-05-08 05:11 | 46.93704 | -66.85406 | 33723 ft | 390 kts | 240° |
| 2026-05-08 05:12 | 46.91375 | -66.92557 | 33770 ft | 390 kts | 241° |
| 2026-05-08 05:12 | 46.89031 | -66.99730 | 33726 ft | 393 kts | 241° |
| 2026-05-08 05:13 | 46.87233 | -67.07322 | 33729 ft | 401 kts | 253° |
| 2026-05-08 05:13 | 46.86338 | -67.15390 | 33724 ft | 403 kts | 256° |
| 2026-05-08 05:14 | 46.85614 | -67.23529 | 33730 ft | 404 kts | 257° |
| 2026-05-08 05:14 | 46.84898 | -67.31665 | 33730 ft | 404 kts | 256° |
| 2026-05-08 05:15 | 46.84155 | -67.39786 | 33731 ft | 403 kts | 256° |
| 2026-05-08 05:15 | 46.83393 | -67.47916 | 33736 ft | 405 kts | 257° |
| 2026-05-08 05:16 | 46.82617 | -67.56096 | 33719 ft | 407 kts | 257° |
| 2026-05-08 05:16 | 46.81837 | -67.64270 | 33723 ft | 405 kts | 256° |
| 2026-05-08 05:17 | 46.81055 | -67.72414 | 33719 ft | 405 kts | 256° |
| 2026-05-08 05:17 | 46.80267 | -67.80560 | 33716 ft | 405 kts | 256° |
| 2026-05-08 05:18 | 46.79478 | -67.88650 | 33711 ft | 405 kts | 256° |
| 2026-05-08 05:18 | 46.78675 | -67.96813 | 33717 ft | 408 kts | 257° |
| 2026-05-08 05:19 | 46.77859 | -68.05052 | 33733 ft | 411 kts | 257° |
| 2026-05-08 05:19 | 46.76994 | -68.11836 | 33748 ft | 408 kts | 253° |
| 2026-05-08 05:20 | 46.75684 | -68.19891 | 33745 ft | 408 kts | 252° |
| 2026-05-08 05:20 | 46.74321 | -68.27917 | 33757 ft | 408 kts | 252° |
| 2026-05-08 05:21 | 46.72948 | -68.35937 | 33760 ft | 408 kts | 252° |
| 2026-05-08 05:21 | 46.71573 | -68.43963 | 33757 ft | 409 kts | 252° |
| 2026-05-08 05:22 | 46.70185 | -68.52048 | 33748 ft | 412 kts | 252° |
| 2026-05-08 05:22 | 46.68791 | -68.60145 | 33757 ft | 413 kts | 252° |
| 2026-05-08 05:23 | 46.67390 | -68.68249 | 33758 ft | 413 kts | 252° |
| 2026-05-08 05:23 | 46.65982 | -68.76350 | 33755 ft | 413 kts | 252° |
| 2026-05-08 05:24 | 46.64568 | -68.84441 | 33758 ft | 412 kts | 252° |
| 2026-05-08 05:24 | 46.63154 | -68.92499 | 33761 ft | 411 kts | 252° |
| 2026-05-08 05:25 | 46.61734 | -69.00551 | 33759 ft | 411 kts | 252° |
| 2026-05-08 05:25 | 46.60309 | -69.08595 | 33766 ft | 411 kts | 252° |
| 2026-05-08 05:26 | 46.58879 | -69.16636 | 33766 ft | 411 kts | 252° |
| 2026-05-08 05:26 | 46.57452 | -69.24625 | 33764 ft | 411 kts | 252° |
| 2026-05-08 05:27 | 46.56002 | -69.32704 | 33767 ft | 411 kts | 252° |
| 2026-05-08 05:27 | 46.54554 | -69.40739 | 33778 ft | 411 kts | 252° |
| 2026-05-08 05:28 | 46.53104 | -69.48741 | 33768 ft | 414 kts | 252° |
| 2026-05-08 05:28 | 46.51632 | -69.56834 | 33764 ft | 415 kts | 252° |
| 2026-05-08 05:29 | 46.50155 | -69.64924 | 33760 ft | 415 kts | 252° |
| 2026-05-08 05:29 | 46.48670 | -69.73021 | 33763 ft | 415 kts | 252° |
| 2026-05-08 05:30 | 46.47182 | -69.81101 | 33759 ft | 415 kts | 252° |
| 2026-05-08 05:30 | 46.45688 | -69.89174 | 33761 ft | 414 kts | 252° |
| 2026-05-08 05:31 | 46.44184 | -69.97254 | 33756 ft | 416 kts | 252° |
| 2026-05-08 05:31 | 46.42681 | -70.05309 | 33764 ft | 416 kts | 252° |
| 2026-05-08 05:32 | 46.41164 | -70.13406 | 33760 ft | 416 kts | 252° |
| 2026-05-08 05:32 | 46.39633 | -70.21541 | 33771 ft | 416 kts | 252° |
| 2026-05-08 05:33 | 46.38115 | -70.29568 | 33776 ft | 416 kts | 252° |
| 2026-05-08 05:33 | 46.36580 | -70.37647 | 33775 ft | 416 kts | 252° |
| 2026-05-08 05:34 | 46.35038 | -70.45734 | 33784 ft | 417 kts | 252° |
| 2026-05-08 05:34 | 46.33486 | -70.53833 | 33781 ft | 418 kts | 252° |
| 2026-05-08 05:35 | 46.31932 | -70.61920 | 33779 ft | 417 kts | 252° |
| 2026-05-08 05:35 | 46.30373 | -70.69990 | 33800 ft | 416 kts | 252° |
| 2026-05-08 05:36 | 46.28809 | -70.78049 | 33781 ft | 416 kts | 252° |
| 2026-05-08 05:36 | 46.27239 | -70.86111 | 33799 ft | 416 kts | 252° |
| 2026-05-08 05:37 | 46.25663 | -70.94164 | 33802 ft | 419 kts | 252° |
| 2026-05-08 05:37 | 46.24067 | -71.02283 | 33800 ft | 421 kts | 252° |
| 2026-05-08 05:38 | 46.22460 | -71.10435 | 33798 ft | 421 kts | 252° |
| 2026-05-08 05:38 | 46.20852 | -71.18557 | 33812 ft | 421 kts | 252° |
| 2026-05-08 05:39 | 46.19238 | -71.26672 | 33811 ft | 420 kts | 252° |
| 2026-05-08 05:39 | 46.17619 | -71.34776 | 33818 ft | 420 kts | 251° |
| 2026-05-08 05:40 | 46.15991 | -71.42891 | 33828 ft | 423 kts | 252° |
| 2026-05-08 05:40 | 46.14357 | -71.51003 | 33825 ft | 425 kts | 252° |
| 2026-05-08 05:41 | 46.12694 | -71.59232 | 33830 ft | 425 kts | 252° |
| 2026-05-08 05:41 | 46.11046 | -71.67350 | 33835 ft | 425 kts | 251° |
| 2026-05-08 05:42 | 46.09384 | -71.75502 | 33830 ft | 424 kts | 251° |
| 2026-05-08 05:42 | 46.07715 | -71.83656 | 33834 ft | 424 kts | 251° |
| 2026-05-08 05:43 | 46.06041 | -71.91799 | 33836 ft | 425 kts | 252° |
| 2026-05-08 05:43 | 46.04354 | -71.99969 | 33834 ft | 427 kts | 251° |
| 2026-05-08 05:44 | 46.02655 | -72.08171 | 33837 ft | 427 kts | 251° |
| 2026-05-08 05:44 | 46.00952 | -72.16357 | 33834 ft | 427 kts | 251° |
| 2026-05-08 05:45 | 45.99244 | -72.24534 | 33837 ft | 427 kts | 251° |
| 2026-05-08 05:45 | 45.97528 | -72.32712 | 33841 ft | 427 kts | 251° |
| 2026-05-08 05:46 | 45.95805 | -72.40892 | 33840 ft | 429 kts | 252° |
| 2026-05-08 05:46 | 45.94067 | -72.49111 | 33843 ft | 430 kts | 252° |
| 2026-05-08 05:47 | 45.92323 | -72.57326 | 33844 ft | 430 kts | 251° |
| 2026-05-08 05:47 | 45.90574 | -72.65536 | 33843 ft | 430 kts | 251° |
| 2026-05-08 05:48 | 45.88818 | -72.73742 | 33848 ft | 430 kts | 251° |
| 2026-05-08 05:48 | 45.87068 | -72.81885 | 33856 ft | 430 kts | 252° |
| 2026-05-08 05:49 | 45.85293 | -72.90110 | 33848 ft | 433 kts | 252° |
| 2026-05-08 05:49 | 45.83505 | -72.98371 | 33850 ft | 434 kts | 252° |
| 2026-05-08 05:50 | 45.81711 | -73.06623 | 33851 ft | 434 kts | 252° |
| 2026-05-08 05:50 | 45.79910 | -73.14875 | 33856 ft | 434 kts | 251° |
| 2026-05-08 05:51 | 45.78105 | -73.23116 | 33856 ft | 434 kts | 251° |
| 2026-05-08 05:51 | 45.76291 | -73.31359 | 33862 ft | 434 kts | 252° |
| 2026-05-08 05:52 | 45.74467 | -73.39613 | 33842 ft | 435 kts | 252° |
| 2026-05-08 05:52 | 45.72637 | -73.47870 | 33856 ft | 435 kts | 252° |
| 2026-05-08 05:53 | 45.70802 | -73.56116 | 33858 ft | 435 kts | 252° |
| 2026-05-08 05:53 | 45.68958 | -73.64368 | 33853 ft | 435 kts | 252° |
| 2026-05-08 05:54 | 45.67110 | -73.72606 | 33854 ft | 435 kts | 252° |
| 2026-05-08 05:54 | 45.65256 | -73.80838 | 33851 ft | 435 kts | 252° |
| 2026-05-08 05:55 | 45.63395 | -73.89070 | 33851 ft | 435 kts | 251° |
| 2026-05-08 05:55 | 45.61458 | -73.97192 | 33851 ft | 435 kts | 247° |
| 2026-05-08 05:56 | 45.59032 | -74.05108 | 33850 ft | 435 kts | 246° |
| 2026-05-08 05:56 | 45.56509 | -74.12958 | 33856 ft | 435 kts | 245° |
| 2026-05-08 05:57 | 45.53966 | -74.20794 | 33854 ft | 435 kts | 245° |
| 2026-05-08 05:57 | 45.51424 | -74.28631 | 33857 ft | 436 kts | 245° |
| 2026-05-08 05:58 | 45.48874 | -74.36491 | 33831 ft | 437 kts | 245° |
| 2026-05-08 05:58 | 45.46320 | -74.44347 | 33854 ft | 436 kts | 245° |
| 2026-05-08 05:59 | 45.43766 | -74.52178 | 33854 ft | 436 kts | 245° |
| 2026-05-08 05:59 | 45.41206 | -74.60002 | 33851 ft | 436 kts | 245° |
| 2026-05-08 06:00 | 45.38639 | -74.67823 | 33855 ft | 436 kts | 245° |
| 2026-05-08 06:00 | 45.36083 | -74.75584 | 33859 ft | 436 kts | 246° |
| 2026-05-08 06:01 | 45.33504 | -74.83398 | 33853 ft | 437 kts | 246° |
| 2026-05-08 06:01 | 45.30917 | -74.91213 | 33853 ft | 437 kts | 246° |
| 2026-05-08 06:02 | 45.28328 | -74.99011 | 33853 ft | 437 kts | 245° |
| 2026-05-08 06:02 | 45.25731 | -75.06807 | 33859 ft | 437 kts | 245° |
| 2026-05-08 06:03 | 45.23130 | -75.14593 | 33859 ft | 437 kts | 245° |
| 2026-05-08 06:03 | 45.20522 | -75.22376 | 33857 ft | 437 kts | 246° |
| 2026-05-08 06:04 | 45.17910 | -75.30147 | 33866 ft | 437 kts | 246° |
| 2026-05-08 06:04 | 45.15291 | -75.37917 | 33866 ft | 437 kts | 246° |
| 2026-05-08 06:05 | 45.12669 | -75.45677 | 33871 ft | 437 kts | 246° |
| 2026-05-08 06:05 | 45.10056 | -75.53385 | 33871 ft | 437 kts | 246° |
| 2026-05-08 06:06 | 45.07422 | -75.61131 | 33876 ft | 437 kts | 246° |
| 2026-05-08 06:06 | 45.04783 | -75.68869 | 33876 ft | 437 kts | 246° |
| 2026-05-08 06:07 | 45.02139 | -75.76599 | 33879 ft | 437 kts | 246° |
| 2026-05-08 06:07 | 44.99490 | -75.84324 | 33884 ft | 437 kts | 246° |
| 2026-05-08 06:08 | 44.96835 | -75.92046 | 33883 ft | 437 kts | 246° |
| 2026-05-08 06:08 | 44.94174 | -75.99760 | 33886 ft | 437 kts | 246° |
| 2026-05-08 06:09 | 44.91508 | -76.07467 | 33876 ft | 437 kts | 246° |
| 2026-05-08 06:09 | 44.88836 | -76.15168 | 33886 ft | 437 kts | 246° |
| 2026-05-08 06:10 | 44.86163 | -76.22849 | 33887 ft | 437 kts | 246° |
| 2026-05-08 06:10 | 44.83934 | -76.29240 | 33890 ft | 437 kts | 246° |
| 2026-05-08 06:11 | 44.81248 | -76.36918 | 33893 ft | 437 kts | 246° |
| 2026-05-08 06:11 | 44.78556 | -76.44595 | 33893 ft | 437 kts | 246° |
| 2026-05-08 06:12 | 44.75861 | -76.52257 | 33883 ft | 436 kts | 246° |
| 2026-05-08 06:12 | 44.73167 | -76.59893 | 33895 ft | 436 kts | 245° |
| 2026-05-08 06:13 | 44.70468 | -76.67523 | 33895 ft | 436 kts | 246° |
| 2026-05-08 06:13 | 44.67767 | -76.75136 | 33901 ft | 436 kts | 246° |
| 2026-05-08 06:14 | 44.65057 | -76.82757 | 33902 ft | 436 kts | 246° |
| 2026-05-08 06:14 | 44.62344 | -76.90362 | 33889 ft | 435 kts | 246° |
| 2026-05-08 06:15 | 44.59648 | -76.97895 | 33908 ft | 434 kts | 246° |
| 2026-05-08 06:15 | 44.56938 | -77.05451 | 33910 ft | 433 kts | 246° |
| 2026-05-08 06:16 | 44.54224 | -77.12997 | 33927 ft | 434 kts | 246° |
| 2026-05-08 06:16 | 44.51500 | -77.20551 | 33917 ft | 434 kts | 246° |
| 2026-05-08 06:17 | 44.47404 | -77.31867 | 33908 ft | 434 kts | 246° |
| 2026-05-08 06:17 | 44.44677 | -77.39372 | 33925 ft | 432 kts | 246° |
| 2026-05-08 06:18 | 44.41951 | -77.46858 | 33922 ft | 431 kts | 246° |
| 2026-05-08 06:18 | 44.39223 | -77.54329 | 33929 ft | 432 kts | 246° |
| 2026-05-08 06:19 | 44.36489 | -77.61796 | 33928 ft | 432 kts | 246° |
| 2026-05-08 06:19 | 44.33745 | -77.69271 | 33937 ft | 432 kts | 246° |
| 2026-05-08 06:20 | 44.31043 | -77.76744 | 33932 ft | 430 kts | 247° |
| 2026-05-08 06:20 | 44.28406 | -77.84234 | 33934 ft | 429 kts | 247° |
| 2026-05-08 06:21 | 44.25770 | -77.91704 | 33932 ft | 429 kts | 247° |
| 2026-05-08 06:21 | 44.23118 | -77.99163 | 33935 ft | 429 kts | 246° |
| 2026-05-08 06:22 | 44.20470 | -78.06575 | 33935 ft | 430 kts | 246° |
| 2026-05-08 06:22 | 44.17801 | -78.14019 | 33937 ft | 430 kts | 246° |
| 2026-05-08 06:23 | 44.15124 | -78.21469 | 33938 ft | 430 kts | 246° |
| 2026-05-08 06:23 | 44.12442 | -78.28910 | 33936 ft | 430 kts | 246° |
| 2026-05-08 06:24 | 44.09759 | -78.36336 | 33938 ft | 430 kts | 246° |
| 2026-05-08 06:24 | 44.07069 | -78.43763 | 33938 ft | 430 kts | 246° |
| 2026-05-08 06:25 | 44.04372 | -78.51189 | 33938 ft | 430 kts | 246° |
| 2026-05-08 06:25 | 44.01675 | -78.58593 | 33938 ft | 429 kts | 246° |
| 2026-05-08 06:26 | 43.98982 | -78.65966 | 33940 ft | 428 kts | 246° |
| 2026-05-08 06:26 | 43.96286 | -78.73329 | 33944 ft | 428 kts | 246° |
| 2026-05-08 06:27 | 43.93587 | -78.80682 | 33943 ft | 427 kts | 246° |
| 2026-05-08 06:27 | 43.90885 | -78.88023 | 33944 ft | 427 kts | 246° |
| 2026-05-08 06:28 | 43.88198 | -78.95303 | 33920 ft | 427 kts | 246° |
| 2026-05-08 06:28 | 43.85494 | -79.02607 | 33944 ft | 425 kts | 246° |
| 2026-05-08 06:29 | 43.82795 | -79.09882 | 33945 ft | 424 kts | 246° |
| 2026-05-08 06:29 | 43.80093 | -79.17146 | 33946 ft | 424 kts | 246° |
| 2026-05-08 06:30 | 43.77386 | -79.24404 | 33945 ft | 424 kts | 246° |
| 2026-05-08 06:30 | 43.74677 | -79.31651 | 33944 ft | 424 kts | 246° |
| 2026-05-08 06:31 | 43.71959 | -79.38900 | 33934 ft | 424 kts | 246° |
| 2026-05-08 06:31 | 43.69250 | -79.46103 | 33944 ft | 422 kts | 246° |
| 2026-05-08 06:32 | 43.66542 | -79.53287 | 33943 ft | 421 kts | 246° |
| 2026-05-08 06:32 | 43.63833 | -79.60460 | 33943 ft | 421 kts | 246° |
| 2026-05-08 06:33 | 43.61138 | -79.67577 | 33943 ft | 421 kts | 246° |
| 2026-05-08 06:33 | 43.58423 | -79.74727 | 33952 ft | 421 kts | 246° |
| 2026-05-08 06:34 | 43.55699 | -79.81879 | 33948 ft | 420 kts | 246° |
| 2026-05-08 06:34 | 43.52989 | -79.88979 | 33956 ft | 418 kts | 246° |
| 2026-05-08 06:35 | 43.50280 | -79.96061 | 33950 ft | 418 kts | 246° |
| 2026-05-08 06:35 | 43.47566 | -80.03138 | 33947 ft | 418 kts | 246° |
| 2026-05-08 06:36 | 43.44845 | -80.10213 | 33943 ft | 418 kts | 246° |
| 2026-05-08 06:36 | 43.42123 | -80.17274 | 33926 ft | 418 kts | 246° |
| 2026-05-08 06:37 | 43.39390 | -80.24345 | 33933 ft | 419 kts | 246° |
| 2026-05-08 06:37 | 43.36651 | -80.31416 | 33936 ft | 419 kts | 246° |
| 2026-05-08 06:38 | 43.33906 | -80.38482 | 33939 ft | 419 kts | 246° |
| 2026-05-08 06:38 | 43.31161 | -80.45532 | 33937 ft | 419 kts | 246° |
| 2026-05-08 06:39 | 43.28408 | -80.52585 | 33945 ft | 419 kts | 246° |
| 2026-05-08 06:39 | 43.25648 | -80.59637 | 33947 ft | 420 kts | 246° |
| 2026-05-08 06:40 | 43.22882 | -80.66689 | 33957 ft | 419 kts | 246° |
| 2026-05-08 06:40 | 43.20127 | -80.73691 | 33961 ft | 417 kts | 246° |
| 2026-05-08 06:41 | 43.17375 | -80.80673 | 33957 ft | 416 kts | 246° |
| 2026-05-08 06:41 | 43.14619 | -80.87648 | 33958 ft | 416 kts | 246° |
| 2026-05-08 06:42 | 43.11859 | -80.94618 | 33955 ft | 416 kts | 246° |
| 2026-05-08 06:42 | 43.09120 | -81.01513 | 33954 ft | 415 kts | 246° |
| 2026-05-08 06:43 | 43.06367 | -81.08426 | 33950 ft | 413 kts | 247° |
| 2026-05-08 06:43 | 43.03197 | -81.14997 | 33952 ft | 420 kts | 236° |
| 2026-05-08 06:44 | 42.98863 | -81.20505 | 33952 ft | 428 kts | 227° |
| 2026-05-08 06:44 | 42.94227 | -81.25652 | 33955 ft | 430 kts | 226° |
| 2026-05-08 06:45 | 42.89552 | -81.30739 | 33915 ft | 429 kts | 227° |
| 2026-05-08 06:45 | 42.84913 | -81.35819 | 33956 ft | 426 kts | 227° |
| 2026-05-08 06:46 | 42.80311 | -81.40890 | 33954 ft | 425 kts | 227° |
| 2026-05-08 06:46 | 42.75720 | -81.45954 | 33953 ft | 425 kts | 227° |
| 2026-05-08 06:47 | 42.71124 | -81.51011 | 33953 ft | 425 kts | 227° |
| 2026-05-08 06:47 | 42.66533 | -81.56045 | 33952 ft | 423 kts | 227° |
| 2026-05-08 06:48 | 42.61955 | -81.61056 | 33953 ft | 422 kts | 227° |
| 2026-05-08 06:48 | 42.57382 | -81.66056 | 33939 ft | 422 kts | 227° |
| 2026-05-08 06:49 | 42.52798 | -81.71058 | 33943 ft | 423 kts | 227° |
| 2026-05-08 06:49 | 42.48212 | -81.76051 | 33946 ft | 423 kts | 227° |
| 2026-05-08 06:50 | 42.43620 | -81.81039 | 33948 ft | 423 kts | 227° |
| 2026-05-08 06:50 | 42.39053 | -81.85991 | 33949 ft | 423 kts | 227° |
| 2026-05-08 06:51 | 42.34458 | -81.90963 | 33951 ft | 423 kts | 227° |
| 2026-05-08 06:51 | 42.29861 | -81.95926 | 33948 ft | 422 kts | 228° |
| 2026-05-08 06:52 | 42.25286 | -82.00857 | 33955 ft | 421 kts | 228° |
| 2026-05-08 06:52 | 42.20713 | -82.05780 | 33950 ft | 421 kts | 228° |
| 2026-05-08 06:53 | 42.16135 | -82.10698 | 33945 ft | 421 kts | 228° |
| 2026-05-08 06:53 | 42.11557 | -82.15605 | 33944 ft | 420 kts | 228° |
| 2026-05-08 06:54 | 42.07000 | -82.20477 | 33947 ft | 418 kts | 228° |
| 2026-05-08 06:54 | 42.02447 | -82.25341 | 33947 ft | 417 kts | 228° |
| 2026-05-08 06:55 | 41.97900 | -82.30190 | 33955 ft | 417 kts | 228° |
| 2026-05-08 06:55 | 41.93347 | -82.35035 | 33918 ft | 417 kts | 228° |
| 2026-05-08 06:56 | 41.88824 | -82.39830 | 33949 ft | 412 kts | 228° |
| 2026-05-08 06:56 | 41.84338 | -82.44585 | 33955 ft | 411 kts | 229° |
| 2026-05-08 06:57 | 41.79849 | -82.49339 | 33957 ft | 411 kts | 229° |
| 2026-05-08 06:57 | 41.75361 | -82.54081 | 33960 ft | 411 kts | 229° |
| 2026-05-08 06:58 | 41.70877 | -82.58804 | 33959 ft | 408 kts | 229° |
| 2026-05-08 06:58 | 41.66424 | -82.63487 | 33961 ft | 407 kts | 229° |
| 2026-05-08 06:59 | 41.62007 | -82.68130 | 33964 ft | 407 kts | 229° |
| 2026-05-08 06:59 | 41.57558 | -82.72797 | 33961 ft | 407 kts | 229° |
| 2026-05-08 07:00 | 41.53110 | -82.77453 | 33955 ft | 406 kts | 229° |
| 2026-05-08 07:00 | 41.48673 | -82.82086 | 33961 ft | 404 kts | 229° |
| 2026-05-08 07:01 | 41.44990 | -82.85927 | 33979 ft | 404 kts | 229° |
| 2026-05-08 07:01 | 41.40560 | -82.90542 | 33976 ft | 404 kts | 229° |
| 2026-05-08 07:02 | 41.36123 | -82.95155 | 33976 ft | 405 kts | 229° |